<?xml version="1.0" encoding="UTF-8" standalone="no" ?>
<gpx xmlns="http://www.topografix.com/GPX/1/1" xmlns:xsi="http://www.w3.org/2001/XMLSchema-instance" xsi:schemaLocation="http://www.topografix.com/GPX/1/1 http://www.topografix.com/GPX/1/1/gpx.xsd" version="1.1" creator="VisuGPX - https://www.visugpx.com">
  <metadata>
    <name>Libin MARCHE ADEPS 2015 (Avril)</name>
    <desc><![CDATA[PETITE MARCHE BIEN SYMPA BON POUR LA FORME
]]></desc>
  </metadata>
  <trk>
    <name><![CDATA[solo scooby]]></name>
    <cmt><![CDATA[AVG 17° MAX 25° MIN 15°]]></cmt>
    <trkseg>
      <trkpt lat="49.9784" lon="5.26187">
        <ele>405</ele>
        <time>2015-04-26T07:15:53Z</time>
      </trkpt>
      <trkpt lat="49.97842" lon="5.26195">
        <ele>405</ele>
        <time>2015-04-26T07:15:58Z</time>
      </trkpt>
      <trkpt lat="49.97844" lon="5.26209">
        <ele>406</ele>
        <time>2015-04-26T07:16:04Z</time>
      </trkpt>
      <trkpt lat="49.97845" lon="5.26222">
        <ele>407</ele>
        <time>2015-04-26T07:16:10Z</time>
      </trkpt>
      <trkpt lat="49.97844" lon="5.26233">
        <ele>407</ele>
        <time>2015-04-26T07:16:15Z</time>
      </trkpt>
      <trkpt lat="49.97843" lon="5.26243">
        <ele>407</ele>
        <time>2015-04-26T07:16:20Z</time>
      </trkpt>
      <trkpt lat="49.97841" lon="5.26252">
        <ele>408</ele>
        <time>2015-04-26T07:16:25Z</time>
      </trkpt>
      <trkpt lat="49.97841" lon="5.26262">
        <ele>408</ele>
        <time>2015-04-26T07:16:31Z</time>
      </trkpt>
      <trkpt lat="49.9784" lon="5.26274">
        <ele>408</ele>
        <time>2015-04-26T07:16:37Z</time>
      </trkpt>
      <trkpt lat="49.97839" lon="5.26285">
        <ele>408</ele>
        <time>2015-04-26T07:16:42Z</time>
      </trkpt>
      <trkpt lat="49.9784" lon="5.26296">
        <ele>409</ele>
        <time>2015-04-26T07:16:48Z</time>
      </trkpt>
      <trkpt lat="49.97841" lon="5.26305">
        <ele>409</ele>
        <time>2015-04-26T07:16:53Z</time>
      </trkpt>
      <trkpt lat="49.97841" lon="5.26316">
        <ele>409</ele>
        <time>2015-04-26T07:16:59Z</time>
      </trkpt>
      <trkpt lat="49.9784" lon="5.26328">
        <ele>410</ele>
        <time>2015-04-26T07:17:05Z</time>
      </trkpt>
      <trkpt lat="49.97841" lon="5.26339">
        <ele>411</ele>
        <time>2015-04-26T07:17:11Z</time>
      </trkpt>
      <trkpt lat="49.9784" lon="5.26349">
        <ele>411</ele>
        <time>2015-04-26T07:17:16Z</time>
      </trkpt>
      <trkpt lat="49.97841" lon="5.26364">
        <ele>411</ele>
        <time>2015-04-26T07:17:22Z</time>
      </trkpt>
      <trkpt lat="49.97841" lon="5.26377">
        <ele>411</ele>
        <time>2015-04-26T07:17:28Z</time>
      </trkpt>
      <trkpt lat="49.97841" lon="5.26391">
        <ele>412</ele>
        <time>2015-04-26T07:17:34Z</time>
      </trkpt>
      <trkpt lat="49.97842" lon="5.26403">
        <ele>412</ele>
        <time>2015-04-26T07:17:39Z</time>
      </trkpt>
      <trkpt lat="49.97842" lon="5.26414">
        <ele>412</ele>
        <time>2015-04-26T07:17:44Z</time>
      </trkpt>
      <trkpt lat="49.97841" lon="5.26426">
        <ele>413</ele>
        <time>2015-04-26T07:17:49Z</time>
      </trkpt>
      <trkpt lat="49.9784" lon="5.2644">
        <ele>413</ele>
        <time>2015-04-26T07:17:55Z</time>
      </trkpt>
      <trkpt lat="49.9784" lon="5.26453">
        <ele>414</ele>
        <time>2015-04-26T07:18:01Z</time>
      </trkpt>
      <trkpt lat="49.97843" lon="5.26464">
        <ele>414</ele>
        <time>2015-04-26T07:18:07Z</time>
      </trkpt>
      <trkpt lat="49.97844" lon="5.26473">
        <ele>414</ele>
        <time>2015-04-26T07:18:12Z</time>
      </trkpt>
      <trkpt lat="49.97846" lon="5.26485">
        <ele>414</ele>
        <time>2015-04-26T07:18:18Z</time>
      </trkpt>
      <trkpt lat="49.97847" lon="5.26495">
        <ele>415</ele>
        <time>2015-04-26T07:18:23Z</time>
      </trkpt>
      <trkpt lat="49.97845" lon="5.26509">
        <ele>415</ele>
        <time>2015-04-26T07:18:29Z</time>
      </trkpt>
      <trkpt lat="49.97845" lon="5.26522">
        <ele>415</ele>
        <time>2015-04-26T07:18:34Z</time>
      </trkpt>
      <trkpt lat="49.97842" lon="5.26538">
        <ele>415</ele>
        <time>2015-04-26T07:18:40Z</time>
      </trkpt>
      <trkpt lat="49.9784" lon="5.26549">
        <ele>415</ele>
        <time>2015-04-26T07:18:45Z</time>
      </trkpt>
      <trkpt lat="49.9784" lon="5.26558">
        <ele>415</ele>
        <time>2015-04-26T07:18:50Z</time>
      </trkpt>
      <trkpt lat="49.97841" lon="5.26568">
        <ele>416</ele>
        <time>2015-04-26T07:18:56Z</time>
      </trkpt>
      <trkpt lat="49.97842" lon="5.26578">
        <ele>416</ele>
        <time>2015-04-26T07:19:01Z</time>
      </trkpt>
      <trkpt lat="49.97842" lon="5.26585">
        <ele>417</ele>
        <time>2015-04-26T07:19:06Z</time>
      </trkpt>
      <trkpt lat="49.97841" lon="5.26598">
        <ele>417</ele>
        <time>2015-04-26T07:19:12Z</time>
      </trkpt>
      <trkpt lat="49.97842" lon="5.26611">
        <ele>417</ele>
        <time>2015-04-26T07:19:17Z</time>
      </trkpt>
      <trkpt lat="49.97843" lon="5.26625">
        <ele>417</ele>
        <time>2015-04-26T07:19:23Z</time>
      </trkpt>
      <trkpt lat="49.97843" lon="5.26641">
        <ele>417</ele>
        <time>2015-04-26T07:19:29Z</time>
      </trkpt>
      <trkpt lat="49.97843" lon="5.26656">
        <ele>417</ele>
        <time>2015-04-26T07:19:35Z</time>
      </trkpt>
      <trkpt lat="49.97843" lon="5.26666">
        <ele>417</ele>
        <time>2015-04-26T07:19:40Z</time>
      </trkpt>
      <trkpt lat="49.97844" lon="5.26679">
        <ele>417</ele>
        <time>2015-04-26T07:19:46Z</time>
      </trkpt>
      <trkpt lat="49.97843" lon="5.2669">
        <ele>418</ele>
        <time>2015-04-26T07:19:51Z</time>
      </trkpt>
      <trkpt lat="49.97842" lon="5.26701">
        <ele>418</ele>
        <time>2015-04-26T07:19:56Z</time>
      </trkpt>
      <trkpt lat="49.97841" lon="5.26713">
        <ele>418</ele>
        <time>2015-04-26T07:20:01Z</time>
      </trkpt>
      <trkpt lat="49.97842" lon="5.26725">
        <ele>418</ele>
        <time>2015-04-26T07:20:07Z</time>
      </trkpt>
      <trkpt lat="49.97842" lon="5.26735">
        <ele>418</ele>
        <time>2015-04-26T07:20:12Z</time>
      </trkpt>
      <trkpt lat="49.97841" lon="5.26747">
        <ele>418</ele>
        <time>2015-04-26T07:20:17Z</time>
      </trkpt>
      <trkpt lat="49.97841" lon="5.26758">
        <ele>418</ele>
        <time>2015-04-26T07:20:22Z</time>
      </trkpt>
      <trkpt lat="49.97842" lon="5.26773">
        <ele>418</ele>
        <time>2015-04-26T07:20:28Z</time>
      </trkpt>
      <trkpt lat="49.97844" lon="5.26786">
        <ele>418</ele>
        <time>2015-04-26T07:20:34Z</time>
      </trkpt>
      <trkpt lat="49.97845" lon="5.26797">
        <ele>419</ele>
        <time>2015-04-26T07:20:39Z</time>
      </trkpt>
      <trkpt lat="49.97845" lon="5.26811">
        <ele>419</ele>
        <time>2015-04-26T07:20:44Z</time>
      </trkpt>
      <trkpt lat="49.97846" lon="5.26826">
        <ele>419</ele>
        <time>2015-04-26T07:20:50Z</time>
      </trkpt>
      <trkpt lat="49.97847" lon="5.26842">
        <ele>419</ele>
        <time>2015-04-26T07:20:56Z</time>
      </trkpt>
      <trkpt lat="49.97847" lon="5.26854">
        <ele>420</ele>
        <time>2015-04-26T07:21:01Z</time>
      </trkpt>
      <trkpt lat="49.97849" lon="5.26866">
        <ele>420</ele>
        <time>2015-04-26T07:21:07Z</time>
      </trkpt>
      <trkpt lat="49.9785" lon="5.26876">
        <ele>419</ele>
        <time>2015-04-26T07:21:12Z</time>
      </trkpt>
      <trkpt lat="49.97851" lon="5.26891">
        <ele>420</ele>
        <time>2015-04-26T07:21:18Z</time>
      </trkpt>
      <trkpt lat="49.97852" lon="5.26903">
        <ele>420</ele>
        <time>2015-04-26T07:21:23Z</time>
      </trkpt>
      <trkpt lat="49.97852" lon="5.26914">
        <ele>420</ele>
        <time>2015-04-26T07:21:28Z</time>
      </trkpt>
      <trkpt lat="49.97852" lon="5.26928">
        <ele>420</ele>
        <time>2015-04-26T07:21:34Z</time>
      </trkpt>
      <trkpt lat="49.97851" lon="5.26941">
        <ele>420</ele>
        <time>2015-04-26T07:21:39Z</time>
      </trkpt>
      <trkpt lat="49.9785" lon="5.26952">
        <ele>420</ele>
        <time>2015-04-26T07:21:44Z</time>
      </trkpt>
      <trkpt lat="49.9785" lon="5.26965">
        <ele>420</ele>
        <time>2015-04-26T07:21:50Z</time>
      </trkpt>
      <trkpt lat="49.97851" lon="5.26975">
        <ele>420</ele>
        <time>2015-04-26T07:21:55Z</time>
      </trkpt>
      <trkpt lat="49.9785" lon="5.26987">
        <ele>420</ele>
        <time>2015-04-26T07:22:01Z</time>
      </trkpt>
      <trkpt lat="49.9785" lon="5.27001">
        <ele>421</ele>
        <time>2015-04-26T07:22:07Z</time>
      </trkpt>
      <trkpt lat="49.9785" lon="5.27013">
        <ele>421</ele>
        <time>2015-04-26T07:22:13Z</time>
      </trkpt>
      <trkpt lat="49.9785" lon="5.27022">
        <ele>421</ele>
        <time>2015-04-26T07:22:19Z</time>
      </trkpt>
      <trkpt lat="49.9785" lon="5.27031">
        <ele>421</ele>
        <time>2015-04-26T07:22:24Z</time>
      </trkpt>
      <trkpt lat="49.97849" lon="5.27043">
        <ele>421</ele>
        <time>2015-04-26T07:22:30Z</time>
      </trkpt>
      <trkpt lat="49.97847" lon="5.27054">
        <ele>421</ele>
        <time>2015-04-26T07:22:35Z</time>
      </trkpt>
      <trkpt lat="49.97847" lon="5.27063">
        <ele>421</ele>
        <time>2015-04-26T07:22:40Z</time>
      </trkpt>
      <trkpt lat="49.97846" lon="5.27072">
        <ele>421</ele>
        <time>2015-04-26T07:22:45Z</time>
      </trkpt>
      <trkpt lat="49.97845" lon="5.27083">
        <ele>422</ele>
        <time>2015-04-26T07:22:51Z</time>
      </trkpt>
      <trkpt lat="49.97843" lon="5.27094">
        <ele>422</ele>
        <time>2015-04-26T07:22:57Z</time>
      </trkpt>
      <trkpt lat="49.97842" lon="5.27105">
        <ele>422</ele>
        <time>2015-04-26T07:23:02Z</time>
      </trkpt>
      <trkpt lat="49.97841" lon="5.27117">
        <ele>422</ele>
        <time>2015-04-26T07:23:08Z</time>
      </trkpt>
      <trkpt lat="49.9784" lon="5.27127">
        <ele>422</ele>
        <time>2015-04-26T07:23:13Z</time>
      </trkpt>
      <trkpt lat="49.97837" lon="5.27141">
        <ele>422</ele>
        <time>2015-04-26T07:23:19Z</time>
      </trkpt>
      <trkpt lat="49.97835" lon="5.27154">
        <ele>422</ele>
        <time>2015-04-26T07:23:25Z</time>
      </trkpt>
      <trkpt lat="49.97833" lon="5.27169">
        <ele>422</ele>
        <time>2015-04-26T07:23:31Z</time>
      </trkpt>
      <trkpt lat="49.97832" lon="5.27184">
        <ele>423</ele>
        <time>2015-04-26T07:23:37Z</time>
      </trkpt>
      <trkpt lat="49.97831" lon="5.27198">
        <ele>423</ele>
        <time>2015-04-26T07:23:43Z</time>
      </trkpt>
      <trkpt lat="49.97831" lon="5.2721">
        <ele>423</ele>
        <time>2015-04-26T07:23:49Z</time>
      </trkpt>
      <trkpt lat="49.9783" lon="5.27221">
        <ele>423</ele>
        <time>2015-04-26T07:23:55Z</time>
      </trkpt>
      <trkpt lat="49.97829" lon="5.27231">
        <ele>423</ele>
        <time>2015-04-26T07:24:00Z</time>
      </trkpt>
      <trkpt lat="49.97828" lon="5.27243">
        <ele>423</ele>
        <time>2015-04-26T07:24:06Z</time>
      </trkpt>
      <trkpt lat="49.97827" lon="5.27253">
        <ele>423</ele>
        <time>2015-04-26T07:24:11Z</time>
      </trkpt>
      <trkpt lat="49.97825" lon="5.27264">
        <ele>423</ele>
        <time>2015-04-26T07:24:17Z</time>
      </trkpt>
      <trkpt lat="49.97824" lon="5.27275">
        <ele>424</ele>
        <time>2015-04-26T07:24:23Z</time>
      </trkpt>
      <trkpt lat="49.97823" lon="5.27286">
        <ele>424</ele>
        <time>2015-04-26T07:24:28Z</time>
      </trkpt>
      <trkpt lat="49.97822" lon="5.27297">
        <ele>424</ele>
        <time>2015-04-26T07:24:33Z</time>
      </trkpt>
      <trkpt lat="49.9782" lon="5.27311">
        <ele>425</ele>
        <time>2015-04-26T07:24:39Z</time>
      </trkpt>
      <trkpt lat="49.97819" lon="5.27322">
        <ele>425</ele>
        <time>2015-04-26T07:24:44Z</time>
      </trkpt>
      <trkpt lat="49.97818" lon="5.27336">
        <ele>425</ele>
        <time>2015-04-26T07:24:50Z</time>
      </trkpt>
      <trkpt lat="49.97818" lon="5.27346">
        <ele>425</ele>
        <time>2015-04-26T07:24:55Z</time>
      </trkpt>
      <trkpt lat="49.97817" lon="5.27359">
        <ele>425</ele>
        <time>2015-04-26T07:25:01Z</time>
      </trkpt>
      <trkpt lat="49.97816" lon="5.27374">
        <ele>425</ele>
        <time>2015-04-26T07:25:07Z</time>
      </trkpt>
      <trkpt lat="49.97816" lon="5.27388">
        <ele>425</ele>
        <time>2015-04-26T07:25:13Z</time>
      </trkpt>
      <trkpt lat="49.97816" lon="5.27401">
        <ele>425</ele>
        <time>2015-04-26T07:25:19Z</time>
      </trkpt>
      <trkpt lat="49.97816" lon="5.27411">
        <ele>425</ele>
        <time>2015-04-26T07:25:24Z</time>
      </trkpt>
      <trkpt lat="49.97817" lon="5.27424">
        <ele>425</ele>
        <time>2015-04-26T07:25:30Z</time>
      </trkpt>
      <trkpt lat="49.97818" lon="5.27435">
        <ele>426</ele>
        <time>2015-04-26T07:25:35Z</time>
      </trkpt>
      <trkpt lat="49.97817" lon="5.2745">
        <ele>425</ele>
        <time>2015-04-26T07:25:41Z</time>
      </trkpt>
      <trkpt lat="49.97816" lon="5.27461">
        <ele>425</ele>
        <time>2015-04-26T07:25:46Z</time>
      </trkpt>
      <trkpt lat="49.97816" lon="5.27475">
        <ele>426</ele>
        <time>2015-04-26T07:25:52Z</time>
      </trkpt>
      <trkpt lat="49.97817" lon="5.27485">
        <ele>426</ele>
        <time>2015-04-26T07:25:57Z</time>
      </trkpt>
      <trkpt lat="49.97818" lon="5.27496">
        <ele>426</ele>
        <time>2015-04-26T07:26:02Z</time>
      </trkpt>
      <trkpt lat="49.97818" lon="5.27511">
        <ele>426</ele>
        <time>2015-04-26T07:26:08Z</time>
      </trkpt>
      <trkpt lat="49.97819" lon="5.2752">
        <ele>426</ele>
        <time>2015-04-26T07:26:13Z</time>
      </trkpt>
      <trkpt lat="49.9782" lon="5.27528">
        <ele>426</ele>
        <time>2015-04-26T07:26:19Z</time>
      </trkpt>
      <trkpt lat="49.97819" lon="5.27531">
        <ele>426</ele>
        <time>2015-04-26T07:26:24Z</time>
      </trkpt>
      <trkpt lat="49.9782" lon="5.27543">
        <ele>426</ele>
        <time>2015-04-26T07:26:30Z</time>
      </trkpt>
      <trkpt lat="49.9782" lon="5.27557">
        <ele>426</ele>
        <time>2015-04-26T07:26:36Z</time>
      </trkpt>
      <trkpt lat="49.97821" lon="5.27569">
        <ele>427</ele>
        <time>2015-04-26T07:26:42Z</time>
      </trkpt>
      <trkpt lat="49.97821" lon="5.27579">
        <ele>426</ele>
        <time>2015-04-26T07:26:47Z</time>
      </trkpt>
      <trkpt lat="49.97821" lon="5.27593">
        <ele>426</ele>
        <time>2015-04-26T07:26:53Z</time>
      </trkpt>
      <trkpt lat="49.97821" lon="5.27604">
        <ele>426</ele>
        <time>2015-04-26T07:26:58Z</time>
      </trkpt>
      <trkpt lat="49.97822" lon="5.27618">
        <ele>427</ele>
        <time>2015-04-26T07:27:04Z</time>
      </trkpt>
      <trkpt lat="49.97821" lon="5.27631">
        <ele>427</ele>
        <time>2015-04-26T07:27:09Z</time>
      </trkpt>
      <trkpt lat="49.97821" lon="5.27642">
        <ele>427</ele>
        <time>2015-04-26T07:27:14Z</time>
      </trkpt>
      <trkpt lat="49.97821" lon="5.27656">
        <ele>427</ele>
        <time>2015-04-26T07:27:20Z</time>
      </trkpt>
      <trkpt lat="49.97822" lon="5.27666">
        <ele>427</ele>
        <time>2015-04-26T07:27:25Z</time>
      </trkpt>
      <trkpt lat="49.97822" lon="5.2768">
        <ele>427</ele>
        <time>2015-04-26T07:27:31Z</time>
      </trkpt>
      <trkpt lat="49.97823" lon="5.27691">
        <ele>427</ele>
        <time>2015-04-26T07:27:36Z</time>
      </trkpt>
      <trkpt lat="49.97823" lon="5.27703">
        <ele>427</ele>
        <time>2015-04-26T07:27:42Z</time>
      </trkpt>
      <trkpt lat="49.97824" lon="5.27715">
        <ele>427</ele>
        <time>2015-04-26T07:27:48Z</time>
      </trkpt>
      <trkpt lat="49.97825" lon="5.27724">
        <ele>427</ele>
        <time>2015-04-26T07:27:53Z</time>
      </trkpt>
      <trkpt lat="49.97825" lon="5.27735">
        <ele>427</ele>
        <time>2015-04-26T07:27:58Z</time>
      </trkpt>
      <trkpt lat="49.97826" lon="5.27747">
        <ele>427</ele>
        <time>2015-04-26T07:28:04Z</time>
      </trkpt>
      <trkpt lat="49.97825" lon="5.27759">
        <ele>428</ele>
        <time>2015-04-26T07:28:09Z</time>
      </trkpt>
      <trkpt lat="49.97825" lon="5.27772">
        <ele>427</ele>
        <time>2015-04-26T07:28:15Z</time>
      </trkpt>
      <trkpt lat="49.97824" lon="5.27782">
        <ele>427</ele>
        <time>2015-04-26T07:28:20Z</time>
      </trkpt>
      <trkpt lat="49.97825" lon="5.27793">
        <ele>427</ele>
        <time>2015-04-26T07:28:25Z</time>
      </trkpt>
      <trkpt lat="49.97826" lon="5.27805">
        <ele>428</ele>
        <time>2015-04-26T07:28:31Z</time>
      </trkpt>
      <trkpt lat="49.97824" lon="5.27818">
        <ele>428</ele>
        <time>2015-04-26T07:28:37Z</time>
      </trkpt>
      <trkpt lat="49.97824" lon="5.27829">
        <ele>428</ele>
        <time>2015-04-26T07:28:42Z</time>
      </trkpt>
      <trkpt lat="49.97823" lon="5.27842">
        <ele>428</ele>
        <time>2015-04-26T07:28:48Z</time>
      </trkpt>
      <trkpt lat="49.97822" lon="5.27856">
        <ele>428</ele>
        <time>2015-04-26T07:28:54Z</time>
      </trkpt>
      <trkpt lat="49.97821" lon="5.27871">
        <ele>429</ele>
        <time>2015-04-26T07:29:00Z</time>
      </trkpt>
      <trkpt lat="49.97821" lon="5.27884">
        <ele>429</ele>
        <time>2015-04-26T07:29:06Z</time>
      </trkpt>
      <trkpt lat="49.9782" lon="5.27895">
        <ele>429</ele>
        <time>2015-04-26T07:29:11Z</time>
      </trkpt>
      <trkpt lat="49.97818" lon="5.27909">
        <ele>429</ele>
        <time>2015-04-26T07:29:17Z</time>
      </trkpt>
      <trkpt lat="49.97816" lon="5.27923">
        <ele>429</ele>
        <time>2015-04-26T07:29:22Z</time>
      </trkpt>
      <trkpt lat="49.97814" lon="5.27941">
        <ele>429</ele>
        <time>2015-04-26T07:29:28Z</time>
      </trkpt>
      <trkpt lat="49.97813" lon="5.27951">
        <ele>430</ele>
        <time>2015-04-26T07:29:33Z</time>
      </trkpt>
      <trkpt lat="49.97812" lon="5.27963">
        <ele>430</ele>
        <time>2015-04-26T07:29:39Z</time>
      </trkpt>
      <trkpt lat="49.97811" lon="5.27976">
        <ele>430</ele>
        <time>2015-04-26T07:29:45Z</time>
      </trkpt>
      <trkpt lat="49.9781" lon="5.27987">
        <ele>430</ele>
        <time>2015-04-26T07:29:50Z</time>
      </trkpt>
      <trkpt lat="49.9781" lon="5.27999">
        <ele>430</ele>
        <time>2015-04-26T07:29:56Z</time>
      </trkpt>
      <trkpt lat="49.97809" lon="5.2801">
        <ele>430</ele>
        <time>2015-04-26T07:30:01Z</time>
      </trkpt>
      <trkpt lat="49.97808" lon="5.28024">
        <ele>430</ele>
        <time>2015-04-26T07:30:07Z</time>
      </trkpt>
      <trkpt lat="49.97807" lon="5.28038">
        <ele>431</ele>
        <time>2015-04-26T07:30:13Z</time>
      </trkpt>
      <trkpt lat="49.97805" lon="5.2805">
        <ele>431</ele>
        <time>2015-04-26T07:30:18Z</time>
      </trkpt>
      <trkpt lat="49.97804" lon="5.28063">
        <ele>431</ele>
        <time>2015-04-26T07:30:23Z</time>
      </trkpt>
      <trkpt lat="49.97803" lon="5.28076">
        <ele>432</ele>
        <time>2015-04-26T07:30:29Z</time>
      </trkpt>
      <trkpt lat="49.97803" lon="5.28087">
        <ele>432</ele>
        <time>2015-04-26T07:30:34Z</time>
      </trkpt>
      <trkpt lat="49.97801" lon="5.28104">
        <ele>431</ele>
        <time>2015-04-26T07:30:40Z</time>
      </trkpt>
      <trkpt lat="49.978" lon="5.28117">
        <ele>432</ele>
        <time>2015-04-26T07:30:46Z</time>
      </trkpt>
      <trkpt lat="49.97799" lon="5.28128">
        <ele>432</ele>
        <time>2015-04-26T07:30:51Z</time>
      </trkpt>
      <trkpt lat="49.97798" lon="5.28139">
        <ele>432</ele>
        <time>2015-04-26T07:30:56Z</time>
      </trkpt>
      <trkpt lat="49.97797" lon="5.28152">
        <ele>433</ele>
        <time>2015-04-26T07:31:02Z</time>
      </trkpt>
      <trkpt lat="49.97795" lon="5.28163">
        <ele>433</ele>
        <time>2015-04-26T07:31:07Z</time>
      </trkpt>
      <trkpt lat="49.97794" lon="5.28176">
        <ele>432</ele>
        <time>2015-04-26T07:31:13Z</time>
      </trkpt>
      <trkpt lat="49.97793" lon="5.28187">
        <ele>432</ele>
        <time>2015-04-26T07:31:18Z</time>
      </trkpt>
      <trkpt lat="49.97792" lon="5.282">
        <ele>433</ele>
        <time>2015-04-26T07:31:24Z</time>
      </trkpt>
      <trkpt lat="49.97791" lon="5.28209">
        <ele>433</ele>
        <time>2015-04-26T07:31:29Z</time>
      </trkpt>
      <trkpt lat="49.97789" lon="5.28221">
        <ele>433</ele>
        <time>2015-04-26T07:31:35Z</time>
      </trkpt>
      <trkpt lat="49.97787" lon="5.28232">
        <ele>434</ele>
        <time>2015-04-26T07:31:41Z</time>
      </trkpt>
      <trkpt lat="49.97785" lon="5.28242">
        <ele>434</ele>
        <time>2015-04-26T07:31:46Z</time>
      </trkpt>
      <trkpt lat="49.97783" lon="5.28255">
        <ele>434</ele>
        <time>2015-04-26T07:31:52Z</time>
      </trkpt>
      <trkpt lat="49.9778" lon="5.28267">
        <ele>435</ele>
        <time>2015-04-26T07:31:58Z</time>
      </trkpt>
      <trkpt lat="49.97779" lon="5.28278">
        <ele>435</ele>
        <time>2015-04-26T07:32:03Z</time>
      </trkpt>
      <trkpt lat="49.97778" lon="5.28289">
        <ele>436</ele>
        <time>2015-04-26T07:32:08Z</time>
      </trkpt>
      <trkpt lat="49.97777" lon="5.28302">
        <ele>436</ele>
        <time>2015-04-26T07:32:14Z</time>
      </trkpt>
      <trkpt lat="49.97775" lon="5.28314">
        <ele>436</ele>
        <time>2015-04-26T07:32:19Z</time>
      </trkpt>
      <trkpt lat="49.97773" lon="5.28328">
        <ele>437</ele>
        <time>2015-04-26T07:32:24Z</time>
      </trkpt>
      <trkpt lat="49.9777" lon="5.28341">
        <ele>437</ele>
        <time>2015-04-26T07:32:30Z</time>
      </trkpt>
      <trkpt lat="49.97767" lon="5.28352">
        <ele>437</ele>
        <time>2015-04-26T07:32:35Z</time>
      </trkpt>
      <trkpt lat="49.97766" lon="5.28363">
        <ele>437</ele>
        <time>2015-04-26T07:32:40Z</time>
      </trkpt>
      <trkpt lat="49.97765" lon="5.28374">
        <ele>437</ele>
        <time>2015-04-26T07:32:45Z</time>
      </trkpt>
      <trkpt lat="49.97763" lon="5.28386">
        <ele>438</ele>
        <time>2015-04-26T07:32:50Z</time>
      </trkpt>
      <trkpt lat="49.97761" lon="5.28398">
        <ele>438</ele>
        <time>2015-04-26T07:32:55Z</time>
      </trkpt>
      <trkpt lat="49.9776" lon="5.28411">
        <ele>438</ele>
        <time>2015-04-26T07:33:01Z</time>
      </trkpt>
      <trkpt lat="49.97757" lon="5.28422">
        <ele>438</ele>
        <time>2015-04-26T07:33:06Z</time>
      </trkpt>
      <trkpt lat="49.97755" lon="5.28433">
        <ele>438</ele>
        <time>2015-04-26T07:33:11Z</time>
      </trkpt>
      <trkpt lat="49.97754" lon="5.28445">
        <ele>439</ele>
        <time>2015-04-26T07:33:16Z</time>
      </trkpt>
      <trkpt lat="49.97753" lon="5.2846">
        <ele>439</ele>
        <time>2015-04-26T07:33:22Z</time>
      </trkpt>
      <trkpt lat="49.97752" lon="5.2847">
        <ele>438</ele>
        <time>2015-04-26T07:33:27Z</time>
      </trkpt>
      <trkpt lat="49.97752" lon="5.28483">
        <ele>439</ele>
        <time>2015-04-26T07:33:33Z</time>
      </trkpt>
      <trkpt lat="49.9775" lon="5.28494">
        <ele>438</ele>
        <time>2015-04-26T07:33:38Z</time>
      </trkpt>
      <trkpt lat="49.97748" lon="5.28508">
        <ele>438</ele>
        <time>2015-04-26T07:33:44Z</time>
      </trkpt>
      <trkpt lat="49.97746" lon="5.28519">
        <ele>438</ele>
        <time>2015-04-26T07:33:49Z</time>
      </trkpt>
      <trkpt lat="49.97742" lon="5.28533">
        <ele>438</ele>
        <time>2015-04-26T07:33:55Z</time>
      </trkpt>
      <trkpt lat="49.97739" lon="5.28543">
        <ele>438</ele>
        <time>2015-04-26T07:34:00Z</time>
      </trkpt>
      <trkpt lat="49.97734" lon="5.28556">
        <ele>438</ele>
        <time>2015-04-26T07:34:06Z</time>
      </trkpt>
      <trkpt lat="49.97729" lon="5.28564">
        <ele>438</ele>
        <time>2015-04-26T07:34:12Z</time>
      </trkpt>
      <trkpt lat="49.97725" lon="5.28571">
        <ele>438</ele>
        <time>2015-04-26T07:34:18Z</time>
      </trkpt>
      <trkpt lat="49.97718" lon="5.2858">
        <ele>438</ele>
        <time>2015-04-26T07:34:24Z</time>
      </trkpt>
      <trkpt lat="49.97712" lon="5.2859">
        <ele>438</ele>
        <time>2015-04-26T07:34:30Z</time>
      </trkpt>
      <trkpt lat="49.97707" lon="5.28599">
        <ele>438</ele>
        <time>2015-04-26T07:34:35Z</time>
      </trkpt>
      <trkpt lat="49.977" lon="5.2861">
        <ele>439</ele>
        <time>2015-04-26T07:34:41Z</time>
      </trkpt>
      <trkpt lat="49.97695" lon="5.28618">
        <ele>438</ele>
        <time>2015-04-26T07:34:46Z</time>
      </trkpt>
      <trkpt lat="49.97688" lon="5.28628">
        <ele>438</ele>
        <time>2015-04-26T07:34:52Z</time>
      </trkpt>
      <trkpt lat="49.97683" lon="5.28637">
        <ele>438</ele>
        <time>2015-04-26T07:34:57Z</time>
      </trkpt>
      <trkpt lat="49.97676" lon="5.28647">
        <ele>438</ele>
        <time>2015-04-26T07:35:03Z</time>
      </trkpt>
      <trkpt lat="49.9767" lon="5.28655">
        <ele>438</ele>
        <time>2015-04-26T07:35:08Z</time>
      </trkpt>
      <trkpt lat="49.97664" lon="5.28662">
        <ele>438</ele>
        <time>2015-04-26T07:35:14Z</time>
      </trkpt>
      <trkpt lat="49.97658" lon="5.28664">
        <ele>438</ele>
        <time>2015-04-26T07:35:19Z</time>
      </trkpt>
      <trkpt lat="49.97651" lon="5.2867">
        <ele>438</ele>
        <time>2015-04-26T07:35:25Z</time>
      </trkpt>
      <trkpt lat="49.97644" lon="5.28677">
        <ele>439</ele>
        <time>2015-04-26T07:35:30Z</time>
      </trkpt>
      <trkpt lat="49.97636" lon="5.28687">
        <ele>439</ele>
        <time>2015-04-26T07:35:36Z</time>
      </trkpt>
      <trkpt lat="49.97629" lon="5.28697">
        <ele>439</ele>
        <time>2015-04-26T07:35:42Z</time>
      </trkpt>
      <trkpt lat="49.97622" lon="5.28706">
        <ele>438</ele>
        <time>2015-04-26T07:35:48Z</time>
      </trkpt>
      <trkpt lat="49.97617" lon="5.2871">
        <ele>439</ele>
        <time>2015-04-26T07:35:53Z</time>
      </trkpt>
      <trkpt lat="49.97609" lon="5.28718">
        <ele>439</ele>
        <time>2015-04-26T07:35:59Z</time>
      </trkpt>
      <trkpt lat="49.97602" lon="5.28724">
        <ele>439</ele>
        <time>2015-04-26T07:36:04Z</time>
      </trkpt>
      <trkpt lat="49.97594" lon="5.28732">
        <ele>440</ele>
        <time>2015-04-26T07:36:10Z</time>
      </trkpt>
      <trkpt lat="49.97586" lon="5.28736">
        <ele>440</ele>
        <time>2015-04-26T07:36:15Z</time>
      </trkpt>
      <trkpt lat="49.97579" lon="5.28742">
        <ele>440</ele>
        <time>2015-04-26T07:36:21Z</time>
      </trkpt>
      <trkpt lat="49.97569" lon="5.28746">
        <ele>441</ele>
        <time>2015-04-26T07:36:27Z</time>
      </trkpt>
      <trkpt lat="49.97562" lon="5.28751">
        <ele>440</ele>
        <time>2015-04-26T07:36:32Z</time>
      </trkpt>
      <trkpt lat="49.97554" lon="5.28758">
        <ele>441</ele>
        <time>2015-04-26T07:36:38Z</time>
      </trkpt>
      <trkpt lat="49.97548" lon="5.28762">
        <ele>441</ele>
        <time>2015-04-26T07:36:43Z</time>
      </trkpt>
      <trkpt lat="49.97541" lon="5.28767">
        <ele>441</ele>
        <time>2015-04-26T07:36:48Z</time>
      </trkpt>
      <trkpt lat="49.97533" lon="5.28773">
        <ele>441</ele>
        <time>2015-04-26T07:36:54Z</time>
      </trkpt>
      <trkpt lat="49.97527" lon="5.28778">
        <ele>441</ele>
        <time>2015-04-26T07:36:59Z</time>
      </trkpt>
      <trkpt lat="49.97518" lon="5.28784">
        <ele>442</ele>
        <time>2015-04-26T07:37:05Z</time>
      </trkpt>
      <trkpt lat="49.97511" lon="5.28787">
        <ele>442</ele>
        <time>2015-04-26T07:37:11Z</time>
      </trkpt>
      <trkpt lat="49.97505" lon="5.28792">
        <ele>442</ele>
        <time>2015-04-26T07:37:16Z</time>
      </trkpt>
      <trkpt lat="49.97496" lon="5.28801">
        <ele>441</ele>
        <time>2015-04-26T07:37:22Z</time>
      </trkpt>
      <trkpt lat="49.97489" lon="5.28809">
        <ele>442</ele>
        <time>2015-04-26T07:37:27Z</time>
      </trkpt>
      <trkpt lat="49.97481" lon="5.28817">
        <ele>442</ele>
        <time>2015-04-26T07:37:33Z</time>
      </trkpt>
      <trkpt lat="49.97476" lon="5.28821">
        <ele>442</ele>
        <time>2015-04-26T07:37:38Z</time>
      </trkpt>
      <trkpt lat="49.9747" lon="5.28824">
        <ele>441</ele>
        <time>2015-04-26T07:37:43Z</time>
      </trkpt>
      <trkpt lat="49.97463" lon="5.28826">
        <ele>442</ele>
        <time>2015-04-26T07:37:49Z</time>
      </trkpt>
      <trkpt lat="49.97459" lon="5.2883">
        <ele>442</ele>
        <time>2015-04-26T07:37:54Z</time>
      </trkpt>
      <trkpt lat="49.97454" lon="5.28835">
        <ele>442</ele>
        <time>2015-04-26T07:38:00Z</time>
      </trkpt>
      <trkpt lat="49.97451" lon="5.28841">
        <ele>443</ele>
        <time>2015-04-26T07:38:05Z</time>
      </trkpt>
      <trkpt lat="49.97447" lon="5.28848">
        <ele>443</ele>
        <time>2015-04-26T07:38:10Z</time>
      </trkpt>
      <trkpt lat="49.97442" lon="5.28855">
        <ele>443</ele>
        <time>2015-04-26T07:38:16Z</time>
      </trkpt>
      <trkpt lat="49.97437" lon="5.28863">
        <ele>443</ele>
        <time>2015-04-26T07:38:22Z</time>
      </trkpt>
      <trkpt lat="49.97431" lon="5.28872">
        <ele>444</ele>
        <time>2015-04-26T07:38:27Z</time>
      </trkpt>
      <trkpt lat="49.97426" lon="5.28881">
        <ele>443</ele>
        <time>2015-04-26T07:38:33Z</time>
      </trkpt>
      <trkpt lat="49.97422" lon="5.28889">
        <ele>443</ele>
        <time>2015-04-26T07:38:38Z</time>
      </trkpt>
      <trkpt lat="49.97415" lon="5.28898">
        <ele>443</ele>
        <time>2015-04-26T07:38:44Z</time>
      </trkpt>
      <trkpt lat="49.97408" lon="5.28906">
        <ele>444</ele>
        <time>2015-04-26T07:38:50Z</time>
      </trkpt>
      <trkpt lat="49.97403" lon="5.28912">
        <ele>444</ele>
        <time>2015-04-26T07:38:55Z</time>
      </trkpt>
      <trkpt lat="49.97398" lon="5.28918">
        <ele>444</ele>
        <time>2015-04-26T07:39:00Z</time>
      </trkpt>
      <trkpt lat="49.97392" lon="5.28924">
        <ele>444</ele>
        <time>2015-04-26T07:39:06Z</time>
      </trkpt>
      <trkpt lat="49.97386" lon="5.2893">
        <ele>444</ele>
        <time>2015-04-26T07:39:11Z</time>
      </trkpt>
      <trkpt lat="49.97382" lon="5.28936">
        <ele>444</ele>
        <time>2015-04-26T07:39:16Z</time>
      </trkpt>
      <trkpt lat="49.97377" lon="5.28943">
        <ele>445</ele>
        <time>2015-04-26T07:39:21Z</time>
      </trkpt>
      <trkpt lat="49.9737" lon="5.28951">
        <ele>445</ele>
        <time>2015-04-26T07:39:27Z</time>
      </trkpt>
      <trkpt lat="49.97364" lon="5.28959">
        <ele>445</ele>
        <time>2015-04-26T07:39:32Z</time>
      </trkpt>
      <trkpt lat="49.97358" lon="5.28965">
        <ele>445</ele>
        <time>2015-04-26T07:39:37Z</time>
      </trkpt>
      <trkpt lat="49.9735" lon="5.28973">
        <ele>446</ele>
        <time>2015-04-26T07:39:43Z</time>
      </trkpt>
      <trkpt lat="49.97343" lon="5.28981">
        <ele>446</ele>
        <time>2015-04-26T07:39:48Z</time>
      </trkpt>
      <trkpt lat="49.97337" lon="5.28987">
        <ele>446</ele>
        <time>2015-04-26T07:39:53Z</time>
      </trkpt>
      <trkpt lat="49.97329" lon="5.28995">
        <ele>446</ele>
        <time>2015-04-26T07:39:59Z</time>
      </trkpt>
      <trkpt lat="49.97322" lon="5.29">
        <ele>446</ele>
        <time>2015-04-26T07:40:04Z</time>
      </trkpt>
      <trkpt lat="49.97316" lon="5.29007">
        <ele>446</ele>
        <time>2015-04-26T07:40:10Z</time>
      </trkpt>
      <trkpt lat="49.97312" lon="5.29015">
        <ele>447</ele>
        <time>2015-04-26T07:40:15Z</time>
      </trkpt>
      <trkpt lat="49.97312" lon="5.29022">
        <ele>447</ele>
        <time>2015-04-26T07:40:20Z</time>
      </trkpt>
      <trkpt lat="49.97313" lon="5.29028">
        <ele>447</ele>
        <time>2015-04-26T07:40:25Z</time>
      </trkpt>
      <trkpt lat="49.97315" lon="5.29032">
        <ele>447</ele>
        <time>2015-04-26T07:40:30Z</time>
      </trkpt>
      <trkpt lat="49.97318" lon="5.29038">
        <ele>447</ele>
        <time>2015-04-26T07:40:35Z</time>
      </trkpt>
      <trkpt lat="49.97322" lon="5.29045">
        <ele>447</ele>
        <time>2015-04-26T07:40:41Z</time>
      </trkpt>
      <trkpt lat="49.97324" lon="5.29054">
        <ele>447</ele>
        <time>2015-04-26T07:40:46Z</time>
      </trkpt>
      <trkpt lat="49.97326" lon="5.29066">
        <ele>448</ele>
        <time>2015-04-26T07:40:51Z</time>
      </trkpt>
      <trkpt lat="49.97328" lon="5.29082">
        <ele>448</ele>
        <time>2015-04-26T07:40:57Z</time>
      </trkpt>
      <trkpt lat="49.9733" lon="5.29093">
        <ele>448</ele>
        <time>2015-04-26T07:41:02Z</time>
      </trkpt>
      <trkpt lat="49.97331" lon="5.29102">
        <ele>448</ele>
        <time>2015-04-26T07:41:07Z</time>
      </trkpt>
      <trkpt lat="49.97331" lon="5.29109">
        <ele>449</ele>
        <time>2015-04-26T07:41:13Z</time>
      </trkpt>
      <trkpt lat="49.9733" lon="5.29121">
        <ele>450</ele>
        <time>2015-04-26T07:41:18Z</time>
      </trkpt>
      <trkpt lat="49.9733" lon="5.29131">
        <ele>450</ele>
        <time>2015-04-26T07:41:23Z</time>
      </trkpt>
      <trkpt lat="49.97329" lon="5.2914">
        <ele>451</ele>
        <time>2015-04-26T07:41:28Z</time>
      </trkpt>
      <trkpt lat="49.97328" lon="5.29148">
        <ele>451</ele>
        <time>2015-04-26T07:41:33Z</time>
      </trkpt>
      <trkpt lat="49.97326" lon="5.29157">
        <ele>452</ele>
        <time>2015-04-26T07:41:38Z</time>
      </trkpt>
      <trkpt lat="49.97324" lon="5.29167">
        <ele>452</ele>
        <time>2015-04-26T07:41:44Z</time>
      </trkpt>
      <trkpt lat="49.97323" lon="5.29174">
        <ele>453</ele>
        <time>2015-04-26T07:41:49Z</time>
      </trkpt>
      <trkpt lat="49.97322" lon="5.29181">
        <ele>453</ele>
        <time>2015-04-26T07:41:55Z</time>
      </trkpt>
      <trkpt lat="49.97319" lon="5.2919">
        <ele>453</ele>
        <time>2015-04-26T07:42:00Z</time>
      </trkpt>
      <trkpt lat="49.97316" lon="5.29198">
        <ele>454</ele>
        <time>2015-04-26T07:42:05Z</time>
      </trkpt>
      <trkpt lat="49.97312" lon="5.29208">
        <ele>455</ele>
        <time>2015-04-26T07:42:11Z</time>
      </trkpt>
      <trkpt lat="49.97308" lon="5.29215">
        <ele>455</ele>
        <time>2015-04-26T07:42:16Z</time>
      </trkpt>
      <trkpt lat="49.97305" lon="5.29224">
        <ele>456</ele>
        <time>2015-04-26T07:42:22Z</time>
      </trkpt>
      <trkpt lat="49.97302" lon="5.29233">
        <ele>456</ele>
        <time>2015-04-26T07:42:27Z</time>
      </trkpt>
      <trkpt lat="49.97299" lon="5.29242">
        <ele>457</ele>
        <time>2015-04-26T07:42:33Z</time>
      </trkpt>
      <trkpt lat="49.97297" lon="5.29251">
        <ele>457</ele>
        <time>2015-04-26T07:42:38Z</time>
      </trkpt>
      <trkpt lat="49.97293" lon="5.29263">
        <ele>457</ele>
        <time>2015-04-26T07:42:44Z</time>
      </trkpt>
      <trkpt lat="49.9729" lon="5.29273">
        <ele>457</ele>
        <time>2015-04-26T07:42:49Z</time>
      </trkpt>
      <trkpt lat="49.97286" lon="5.29286">
        <ele>457</ele>
        <time>2015-04-26T07:42:55Z</time>
      </trkpt>
      <trkpt lat="49.97282" lon="5.29296">
        <ele>457</ele>
        <time>2015-04-26T07:43:01Z</time>
      </trkpt>
      <trkpt lat="49.97279" lon="5.29307">
        <ele>457</ele>
        <time>2015-04-26T07:43:07Z</time>
      </trkpt>
      <trkpt lat="49.97276" lon="5.29315">
        <ele>458</ele>
        <time>2015-04-26T07:43:13Z</time>
      </trkpt>
      <trkpt lat="49.97273" lon="5.29323">
        <ele>458</ele>
        <time>2015-04-26T07:43:18Z</time>
      </trkpt>
      <trkpt lat="49.9727" lon="5.29331">
        <ele>458</ele>
        <time>2015-04-26T07:43:24Z</time>
      </trkpt>
      <trkpt lat="49.97269" lon="5.29337">
        <ele>458</ele>
        <time>2015-04-26T07:43:29Z</time>
      </trkpt>
      <trkpt lat="49.97269" lon="5.29341">
        <ele>458</ele>
        <time>2015-04-26T07:43:35Z</time>
      </trkpt>
      <trkpt lat="49.97268" lon="5.29347">
        <ele>458</ele>
        <time>2015-04-26T07:43:41Z</time>
      </trkpt>
      <trkpt lat="49.97269" lon="5.29351">
        <ele>459</ele>
        <time>2015-04-26T07:43:47Z</time>
      </trkpt>
      <trkpt lat="49.97268" lon="5.29353">
        <ele>459</ele>
        <time>2015-04-26T07:43:53Z</time>
      </trkpt>
      <trkpt lat="49.97269" lon="5.29355">
        <ele>459</ele>
        <time>2015-04-26T07:43:58Z</time>
      </trkpt>
      <trkpt lat="49.97268" lon="5.29361">
        <ele>458</ele>
        <time>2015-04-26T07:44:04Z</time>
      </trkpt>
      <trkpt lat="49.97268" lon="5.29366">
        <ele>458</ele>
        <time>2015-04-26T07:44:10Z</time>
      </trkpt>
      <trkpt lat="49.97266" lon="5.2937">
        <ele>458</ele>
        <time>2015-04-26T07:44:15Z</time>
      </trkpt>
      <trkpt lat="49.97263" lon="5.29376">
        <ele>459</ele>
        <time>2015-04-26T07:44:20Z</time>
      </trkpt>
      <trkpt lat="49.97262" lon="5.29381">
        <ele>459</ele>
        <time>2015-04-26T07:44:26Z</time>
      </trkpt>
      <trkpt lat="49.97262" lon="5.29385">
        <ele>459</ele>
        <time>2015-04-26T07:44:31Z</time>
      </trkpt>
      <trkpt lat="49.97262" lon="5.29392">
        <ele>460</ele>
        <time>2015-04-26T07:44:37Z</time>
      </trkpt>
      <trkpt lat="49.97265" lon="5.29395">
        <ele>460</ele>
        <time>2015-04-26T07:44:43Z</time>
      </trkpt>
      <trkpt lat="49.97269" lon="5.294">
        <ele>460</ele>
        <time>2015-04-26T07:44:49Z</time>
      </trkpt>
      <trkpt lat="49.97272" lon="5.29403">
        <ele>460</ele>
        <time>2015-04-26T07:44:54Z</time>
      </trkpt>
      <trkpt lat="49.97277" lon="5.29406">
        <ele>460</ele>
        <time>2015-04-26T07:45:00Z</time>
      </trkpt>
      <trkpt lat="49.97282" lon="5.2941">
        <ele>460</ele>
        <time>2015-04-26T07:45:05Z</time>
      </trkpt>
      <trkpt lat="49.97288" lon="5.29415">
        <ele>460</ele>
        <time>2015-04-26T07:45:11Z</time>
      </trkpt>
      <trkpt lat="49.97292" lon="5.29419">
        <ele>461</ele>
        <time>2015-04-26T07:45:16Z</time>
      </trkpt>
      <trkpt lat="49.97297" lon="5.29423">
        <ele>461</ele>
        <time>2015-04-26T07:45:21Z</time>
      </trkpt>
      <trkpt lat="49.97303" lon="5.29426">
        <ele>461</ele>
        <time>2015-04-26T07:45:27Z</time>
      </trkpt>
      <trkpt lat="49.97307" lon="5.29428">
        <ele>461</ele>
        <time>2015-04-26T07:45:32Z</time>
      </trkpt>
      <trkpt lat="49.97311" lon="5.29429">
        <ele>461</ele>
        <time>2015-04-26T07:45:37Z</time>
      </trkpt>
      <trkpt lat="49.97316" lon="5.2943">
        <ele>462</ele>
        <time>2015-04-26T07:45:43Z</time>
      </trkpt>
      <trkpt lat="49.9732" lon="5.29431">
        <ele>461</ele>
        <time>2015-04-26T07:45:48Z</time>
      </trkpt>
      <trkpt lat="49.97324" lon="5.29431">
        <ele>461</ele>
        <time>2015-04-26T07:45:53Z</time>
      </trkpt>
      <trkpt lat="49.9733" lon="5.29431">
        <ele>462</ele>
        <time>2015-04-26T07:45:59Z</time>
      </trkpt>
      <trkpt lat="49.97335" lon="5.29429">
        <ele>461</ele>
        <time>2015-04-26T07:46:05Z</time>
      </trkpt>
      <trkpt lat="49.9734" lon="5.29427">
        <ele>462</ele>
        <time>2015-04-26T07:46:10Z</time>
      </trkpt>
      <trkpt lat="49.97345" lon="5.29426">
        <ele>462</ele>
        <time>2015-04-26T07:46:15Z</time>
      </trkpt>
      <trkpt lat="49.97353" lon="5.29424">
        <ele>462</ele>
        <time>2015-04-26T07:46:20Z</time>
      </trkpt>
      <trkpt lat="49.97359" lon="5.29423">
        <ele>462</ele>
        <time>2015-04-26T07:46:25Z</time>
      </trkpt>
      <trkpt lat="49.97364" lon="5.2942">
        <ele>462</ele>
        <time>2015-04-26T07:46:30Z</time>
      </trkpt>
      <trkpt lat="49.97369" lon="5.29419">
        <ele>462</ele>
        <time>2015-04-26T07:46:36Z</time>
      </trkpt>
      <trkpt lat="49.97374" lon="5.29418">
        <ele>462</ele>
        <time>2015-04-26T07:46:41Z</time>
      </trkpt>
      <trkpt lat="49.97379" lon="5.29418">
        <ele>462</ele>
        <time>2015-04-26T07:46:46Z</time>
      </trkpt>
      <trkpt lat="49.97386" lon="5.29417">
        <ele>462</ele>
        <time>2015-04-26T07:46:52Z</time>
      </trkpt>
      <trkpt lat="49.97391" lon="5.29417">
        <ele>462</ele>
        <time>2015-04-26T07:46:57Z</time>
      </trkpt>
      <trkpt lat="49.97397" lon="5.29416">
        <ele>462</ele>
        <time>2015-04-26T07:47:03Z</time>
      </trkpt>
      <trkpt lat="49.97401" lon="5.29415">
        <ele>462</ele>
        <time>2015-04-26T07:47:08Z</time>
      </trkpt>
      <trkpt lat="49.97408" lon="5.29413">
        <ele>462</ele>
        <time>2015-04-26T07:47:14Z</time>
      </trkpt>
      <trkpt lat="49.97413" lon="5.29412">
        <ele>462</ele>
        <time>2015-04-26T07:47:19Z</time>
      </trkpt>
      <trkpt lat="49.97419" lon="5.29412">
        <ele>462</ele>
        <time>2015-04-26T07:47:25Z</time>
      </trkpt>
      <trkpt lat="49.97425" lon="5.2941">
        <ele>462</ele>
        <time>2015-04-26T07:47:30Z</time>
      </trkpt>
      <trkpt lat="49.97431" lon="5.2941">
        <ele>462</ele>
        <time>2015-04-26T07:47:35Z</time>
      </trkpt>
      <trkpt lat="49.97438" lon="5.29409">
        <ele>462</ele>
        <time>2015-04-26T07:47:41Z</time>
      </trkpt>
      <trkpt lat="49.97446" lon="5.29407">
        <ele>462</ele>
        <time>2015-04-26T07:47:46Z</time>
      </trkpt>
      <trkpt lat="49.97454" lon="5.29405">
        <ele>463</ele>
        <time>2015-04-26T07:47:52Z</time>
      </trkpt>
      <trkpt lat="49.97461" lon="5.29404">
        <ele>463</ele>
        <time>2015-04-26T07:47:57Z</time>
      </trkpt>
      <trkpt lat="49.97469" lon="5.29401">
        <ele>462</ele>
        <time>2015-04-26T07:48:02Z</time>
      </trkpt>
      <trkpt lat="49.97477" lon="5.29399">
        <ele>462</ele>
        <time>2015-04-26T07:48:07Z</time>
      </trkpt>
      <trkpt lat="49.97483" lon="5.29397">
        <ele>463</ele>
        <time>2015-04-26T07:48:13Z</time>
      </trkpt>
      <trkpt lat="49.9749" lon="5.29397">
        <ele>463</ele>
        <time>2015-04-26T07:48:18Z</time>
      </trkpt>
      <trkpt lat="49.97496" lon="5.29395">
        <ele>463</ele>
        <time>2015-04-26T07:48:24Z</time>
      </trkpt>
      <trkpt lat="49.97502" lon="5.29393">
        <ele>463</ele>
        <time>2015-04-26T07:48:29Z</time>
      </trkpt>
      <trkpt lat="49.97507" lon="5.29391">
        <ele>463</ele>
        <time>2015-04-26T07:48:34Z</time>
      </trkpt>
      <trkpt lat="49.97512" lon="5.29391">
        <ele>463</ele>
        <time>2015-04-26T07:48:39Z</time>
      </trkpt>
      <trkpt lat="49.97517" lon="5.29389">
        <ele>463</ele>
        <time>2015-04-26T07:48:45Z</time>
      </trkpt>
      <trkpt lat="49.97521" lon="5.2939">
        <ele>463</ele>
        <time>2015-04-26T07:48:50Z</time>
      </trkpt>
      <trkpt lat="49.97524" lon="5.2939">
        <ele>463</ele>
        <time>2015-04-26T07:48:55Z</time>
      </trkpt>
      <trkpt lat="49.97528" lon="5.29389">
        <ele>463</ele>
        <time>2015-04-26T07:49:00Z</time>
      </trkpt>
      <trkpt lat="49.97532" lon="5.29387">
        <ele>464</ele>
        <time>2015-04-26T07:49:06Z</time>
      </trkpt>
      <trkpt lat="49.97539" lon="5.29385">
        <ele>464</ele>
        <time>2015-04-26T07:49:12Z</time>
      </trkpt>
      <trkpt lat="49.97544" lon="5.29383">
        <ele>464</ele>
        <time>2015-04-26T07:49:17Z</time>
      </trkpt>
      <trkpt lat="49.97554" lon="5.29382">
        <ele>464</ele>
        <time>2015-04-26T07:49:23Z</time>
      </trkpt>
      <trkpt lat="49.9756" lon="5.2938">
        <ele>464</ele>
        <time>2015-04-26T07:49:28Z</time>
      </trkpt>
      <trkpt lat="49.97567" lon="5.29377">
        <ele>464</ele>
        <time>2015-04-26T07:49:34Z</time>
      </trkpt>
      <trkpt lat="49.97573" lon="5.29376">
        <ele>465</ele>
        <time>2015-04-26T07:49:40Z</time>
      </trkpt>
      <trkpt lat="49.9758" lon="5.29377">
        <ele>465</ele>
        <time>2015-04-26T07:49:46Z</time>
      </trkpt>
      <trkpt lat="49.97586" lon="5.29377">
        <ele>465</ele>
        <time>2015-04-26T07:49:51Z</time>
      </trkpt>
      <trkpt lat="49.97592" lon="5.29377">
        <ele>465</ele>
        <time>2015-04-26T07:49:56Z</time>
      </trkpt>
      <trkpt lat="49.97598" lon="5.29376">
        <ele>465</ele>
        <time>2015-04-26T07:50:01Z</time>
      </trkpt>
      <trkpt lat="49.97604" lon="5.29374">
        <ele>465</ele>
        <time>2015-04-26T07:50:07Z</time>
      </trkpt>
      <trkpt lat="49.97611" lon="5.29372">
        <ele>466</ele>
        <time>2015-04-26T07:50:13Z</time>
      </trkpt>
      <trkpt lat="49.97618" lon="5.29371">
        <ele>466</ele>
        <time>2015-04-26T07:50:19Z</time>
      </trkpt>
      <trkpt lat="49.97623" lon="5.29371">
        <ele>466</ele>
        <time>2015-04-26T07:50:24Z</time>
      </trkpt>
      <trkpt lat="49.97629" lon="5.29371">
        <ele>465</ele>
        <time>2015-04-26T07:50:30Z</time>
      </trkpt>
      <trkpt lat="49.97635" lon="5.29369">
        <ele>465</ele>
        <time>2015-04-26T07:50:35Z</time>
      </trkpt>
      <trkpt lat="49.97641" lon="5.29367">
        <ele>465</ele>
        <time>2015-04-26T07:50:40Z</time>
      </trkpt>
      <trkpt lat="49.97647" lon="5.29365">
        <ele>465</ele>
        <time>2015-04-26T07:50:46Z</time>
      </trkpt>
      <trkpt lat="49.97653" lon="5.29363">
        <ele>465</ele>
        <time>2015-04-26T07:50:51Z</time>
      </trkpt>
      <trkpt lat="49.9766" lon="5.29365">
        <ele>465</ele>
        <time>2015-04-26T07:50:57Z</time>
      </trkpt>
      <trkpt lat="49.97665" lon="5.29365">
        <ele>465</ele>
        <time>2015-04-26T07:51:02Z</time>
      </trkpt>
      <trkpt lat="49.97671" lon="5.29366">
        <ele>464</ele>
        <time>2015-04-26T07:51:08Z</time>
      </trkpt>
      <trkpt lat="49.97678" lon="5.29366">
        <ele>464</ele>
        <time>2015-04-26T07:51:14Z</time>
      </trkpt>
      <trkpt lat="49.97686" lon="5.29366">
        <ele>464</ele>
        <time>2015-04-26T07:51:19Z</time>
      </trkpt>
      <trkpt lat="49.97693" lon="5.29365">
        <ele>464</ele>
        <time>2015-04-26T07:51:24Z</time>
      </trkpt>
      <trkpt lat="49.97702" lon="5.29366">
        <ele>463</ele>
        <time>2015-04-26T07:51:30Z</time>
      </trkpt>
      <trkpt lat="49.97708" lon="5.29364">
        <ele>462</ele>
        <time>2015-04-26T07:51:35Z</time>
      </trkpt>
      <trkpt lat="49.97717" lon="5.29361">
        <ele>462</ele>
        <time>2015-04-26T07:51:41Z</time>
      </trkpt>
      <trkpt lat="49.97726" lon="5.29357">
        <ele>461</ele>
        <time>2015-04-26T07:51:47Z</time>
      </trkpt>
      <trkpt lat="49.97733" lon="5.29357">
        <ele>461</ele>
        <time>2015-04-26T07:51:52Z</time>
      </trkpt>
      <trkpt lat="49.97741" lon="5.29358">
        <ele>461</ele>
        <time>2015-04-26T07:51:58Z</time>
      </trkpt>
      <trkpt lat="49.97743" lon="5.29359">
        <ele>461</ele>
        <time>2015-04-26T07:52:03Z</time>
      </trkpt>
      <trkpt lat="49.97751" lon="5.29359">
        <ele>461</ele>
        <time>2015-04-26T07:52:09Z</time>
      </trkpt>
      <trkpt lat="49.97762" lon="5.29358">
        <ele>461</ele>
        <time>2015-04-26T07:52:15Z</time>
      </trkpt>
      <trkpt lat="49.9777" lon="5.29356">
        <ele>460</ele>
        <time>2015-04-26T07:52:20Z</time>
      </trkpt>
      <trkpt lat="49.97777" lon="5.29356">
        <ele>460</ele>
        <time>2015-04-26T07:52:26Z</time>
      </trkpt>
      <trkpt lat="49.97783" lon="5.29354">
        <ele>460</ele>
        <time>2015-04-26T07:52:31Z</time>
      </trkpt>
      <trkpt lat="49.97791" lon="5.29354">
        <ele>461</ele>
        <time>2015-04-26T07:52:37Z</time>
      </trkpt>
      <trkpt lat="49.97799" lon="5.29354">
        <ele>460</ele>
        <time>2015-04-26T07:52:43Z</time>
      </trkpt>
      <trkpt lat="49.97806" lon="5.29356">
        <ele>460</ele>
        <time>2015-04-26T07:52:49Z</time>
      </trkpt>
      <trkpt lat="49.97815" lon="5.29356">
        <ele>460</ele>
        <time>2015-04-26T07:52:55Z</time>
      </trkpt>
      <trkpt lat="49.97823" lon="5.29355">
        <ele>459</ele>
        <time>2015-04-26T07:53:00Z</time>
      </trkpt>
      <trkpt lat="49.97828" lon="5.29354">
        <ele>459</ele>
        <time>2015-04-26T07:53:05Z</time>
      </trkpt>
      <trkpt lat="49.97833" lon="5.29351">
        <ele>459</ele>
        <time>2015-04-26T07:53:11Z</time>
      </trkpt>
      <trkpt lat="49.97836" lon="5.29357">
        <ele>460</ele>
        <time>2015-04-26T07:53:17Z</time>
      </trkpt>
      <trkpt lat="49.97838" lon="5.29363">
        <ele>460</ele>
        <time>2015-04-26T07:53:22Z</time>
      </trkpt>
      <trkpt lat="49.97842" lon="5.29372">
        <ele>461</ele>
        <time>2015-04-26T07:53:28Z</time>
      </trkpt>
      <trkpt lat="49.97844" lon="5.29379">
        <ele>461</ele>
        <time>2015-04-26T07:53:33Z</time>
      </trkpt>
      <trkpt lat="49.97847" lon="5.29389">
        <ele>462</ele>
        <time>2015-04-26T07:53:38Z</time>
      </trkpt>
      <trkpt lat="49.9785" lon="5.29399">
        <ele>462</ele>
        <time>2015-04-26T07:53:44Z</time>
      </trkpt>
      <trkpt lat="49.97852" lon="5.2941">
        <ele>463</ele>
        <time>2015-04-26T07:53:50Z</time>
      </trkpt>
      <trkpt lat="49.97853" lon="5.2942">
        <ele>464</ele>
        <time>2015-04-26T07:53:56Z</time>
      </trkpt>
      <trkpt lat="49.97854" lon="5.2943">
        <ele>464</ele>
        <time>2015-04-26T07:54:01Z</time>
      </trkpt>
      <trkpt lat="49.97855" lon="5.29443">
        <ele>464</ele>
        <time>2015-04-26T07:54:07Z</time>
      </trkpt>
      <trkpt lat="49.97857" lon="5.29455">
        <ele>465</ele>
        <time>2015-04-26T07:54:12Z</time>
      </trkpt>
      <trkpt lat="49.97858" lon="5.29468">
        <ele>466</ele>
        <time>2015-04-26T07:54:18Z</time>
      </trkpt>
      <trkpt lat="49.97858" lon="5.29482">
        <ele>466</ele>
        <time>2015-04-26T07:54:23Z</time>
      </trkpt>
      <trkpt lat="49.97858" lon="5.29495">
        <ele>466</ele>
        <time>2015-04-26T07:54:28Z</time>
      </trkpt>
      <trkpt lat="49.97859" lon="5.29508">
        <ele>467</ele>
        <time>2015-04-26T07:54:34Z</time>
      </trkpt>
      <trkpt lat="49.9786" lon="5.29518">
        <ele>467</ele>
        <time>2015-04-26T07:54:39Z</time>
      </trkpt>
      <trkpt lat="49.97863" lon="5.29527">
        <ele>467</ele>
        <time>2015-04-26T07:54:44Z</time>
      </trkpt>
      <trkpt lat="49.97865" lon="5.29536">
        <ele>468</ele>
        <time>2015-04-26T07:54:49Z</time>
      </trkpt>
      <trkpt lat="49.97866" lon="5.29548">
        <ele>469</ele>
        <time>2015-04-26T07:54:54Z</time>
      </trkpt>
      <trkpt lat="49.97867" lon="5.29558">
        <ele>469</ele>
        <time>2015-04-26T07:54:59Z</time>
      </trkpt>
      <trkpt lat="49.97867" lon="5.29573">
        <ele>470</ele>
        <time>2015-04-26T07:55:05Z</time>
      </trkpt>
      <trkpt lat="49.97868" lon="5.29583">
        <ele>470</ele>
        <time>2015-04-26T07:55:10Z</time>
      </trkpt>
      <trkpt lat="49.97869" lon="5.29593">
        <ele>471</ele>
        <time>2015-04-26T07:55:15Z</time>
      </trkpt>
      <trkpt lat="49.97871" lon="5.29605">
        <ele>471</ele>
        <time>2015-04-26T07:55:20Z</time>
      </trkpt>
      <trkpt lat="49.97873" lon="5.29619">
        <ele>472</ele>
        <time>2015-04-26T07:55:26Z</time>
      </trkpt>
      <trkpt lat="49.97875" lon="5.2963">
        <ele>472</ele>
        <time>2015-04-26T07:55:31Z</time>
      </trkpt>
      <trkpt lat="49.97875" lon="5.29641">
        <ele>473</ele>
        <time>2015-04-26T07:55:37Z</time>
      </trkpt>
      <trkpt lat="49.97877" lon="5.29652">
        <ele>473</ele>
        <time>2015-04-26T07:55:43Z</time>
      </trkpt>
      <trkpt lat="49.97878" lon="5.29663">
        <ele>474</ele>
        <time>2015-04-26T07:55:49Z</time>
      </trkpt>
      <trkpt lat="49.97881" lon="5.29675">
        <ele>474</ele>
        <time>2015-04-26T07:55:54Z</time>
      </trkpt>
      <trkpt lat="49.97882" lon="5.29687">
        <ele>475</ele>
        <time>2015-04-26T07:55:59Z</time>
      </trkpt>
      <trkpt lat="49.97884" lon="5.29697">
        <ele>476</ele>
        <time>2015-04-26T07:56:04Z</time>
      </trkpt>
      <trkpt lat="49.97886" lon="5.2971">
        <ele>476</ele>
        <time>2015-04-26T07:56:10Z</time>
      </trkpt>
      <trkpt lat="49.97887" lon="5.29721">
        <ele>476</ele>
        <time>2015-04-26T07:56:15Z</time>
      </trkpt>
      <trkpt lat="49.97889" lon="5.2973">
        <ele>477</ele>
        <time>2015-04-26T07:56:20Z</time>
      </trkpt>
      <trkpt lat="49.9789" lon="5.29741">
        <ele>477</ele>
        <time>2015-04-26T07:56:25Z</time>
      </trkpt>
      <trkpt lat="49.97891" lon="5.29754">
        <ele>478</ele>
        <time>2015-04-26T07:56:30Z</time>
      </trkpt>
      <trkpt lat="49.97892" lon="5.29765">
        <ele>479</ele>
        <time>2015-04-26T07:56:35Z</time>
      </trkpt>
      <trkpt lat="49.97894" lon="5.29775">
        <ele>479</ele>
        <time>2015-04-26T07:56:40Z</time>
      </trkpt>
      <trkpt lat="49.97895" lon="5.29788">
        <ele>479</ele>
        <time>2015-04-26T07:56:46Z</time>
      </trkpt>
      <trkpt lat="49.97897" lon="5.29801">
        <ele>480</ele>
        <time>2015-04-26T07:56:52Z</time>
      </trkpt>
      <trkpt lat="49.979" lon="5.29815">
        <ele>481</ele>
        <time>2015-04-26T07:56:58Z</time>
      </trkpt>
      <trkpt lat="49.97902" lon="5.29825">
        <ele>481</ele>
        <time>2015-04-26T07:57:03Z</time>
      </trkpt>
      <trkpt lat="49.97904" lon="5.29839">
        <ele>481</ele>
        <time>2015-04-26T07:57:09Z</time>
      </trkpt>
      <trkpt lat="49.97906" lon="5.29848">
        <ele>482</ele>
        <time>2015-04-26T07:57:14Z</time>
      </trkpt>
      <trkpt lat="49.97907" lon="5.29857">
        <ele>482</ele>
        <time>2015-04-26T07:57:20Z</time>
      </trkpt>
      <trkpt lat="49.97908" lon="5.29867">
        <ele>483</ele>
        <time>2015-04-26T07:57:25Z</time>
      </trkpt>
      <trkpt lat="49.97908" lon="5.29873">
        <ele>482</ele>
        <time>2015-04-26T07:57:30Z</time>
      </trkpt>
      <trkpt lat="49.9791" lon="5.29881">
        <ele>482</ele>
        <time>2015-04-26T07:57:35Z</time>
      </trkpt>
      <trkpt lat="49.97912" lon="5.29889">
        <ele>483</ele>
        <time>2015-04-26T07:57:41Z</time>
      </trkpt>
      <trkpt lat="49.97915" lon="5.29896">
        <ele>483</ele>
        <time>2015-04-26T07:57:47Z</time>
      </trkpt>
      <trkpt lat="49.97919" lon="5.29905">
        <ele>483</ele>
        <time>2015-04-26T07:57:53Z</time>
      </trkpt>
      <trkpt lat="49.97924" lon="5.29912">
        <ele>483</ele>
        <time>2015-04-26T07:57:58Z</time>
      </trkpt>
      <trkpt lat="49.97926" lon="5.2992">
        <ele>484</ele>
        <time>2015-04-26T07:58:04Z</time>
      </trkpt>
      <trkpt lat="49.97928" lon="5.29928">
        <ele>485</ele>
        <time>2015-04-26T07:58:09Z</time>
      </trkpt>
      <trkpt lat="49.97929" lon="5.29934">
        <ele>485</ele>
        <time>2015-04-26T07:58:14Z</time>
      </trkpt>
      <trkpt lat="49.97932" lon="5.29943">
        <ele>485</ele>
        <time>2015-04-26T07:58:19Z</time>
      </trkpt>
      <trkpt lat="49.97935" lon="5.29953">
        <ele>485</ele>
        <time>2015-04-26T07:58:25Z</time>
      </trkpt>
      <trkpt lat="49.97938" lon="5.29963">
        <ele>485</ele>
        <time>2015-04-26T07:58:31Z</time>
      </trkpt>
      <trkpt lat="49.9794" lon="5.29974">
        <ele>485</ele>
        <time>2015-04-26T07:58:36Z</time>
      </trkpt>
      <trkpt lat="49.97944" lon="5.29983">
        <ele>486</ele>
        <time>2015-04-26T07:58:41Z</time>
      </trkpt>
      <trkpt lat="49.9795" lon="5.29995">
        <ele>486</ele>
        <time>2015-04-26T07:58:47Z</time>
      </trkpt>
      <trkpt lat="49.97954" lon="5.30007">
        <ele>486</ele>
        <time>2015-04-26T07:58:53Z</time>
      </trkpt>
      <trkpt lat="49.97958" lon="5.30017">
        <ele>487</ele>
        <time>2015-04-26T07:58:58Z</time>
      </trkpt>
      <trkpt lat="49.97961" lon="5.30027">
        <ele>487</ele>
        <time>2015-04-26T07:59:03Z</time>
      </trkpt>
      <trkpt lat="49.97965" lon="5.30038">
        <ele>486</ele>
        <time>2015-04-26T07:59:09Z</time>
      </trkpt>
      <trkpt lat="49.97969" lon="5.30049">
        <ele>487</ele>
        <time>2015-04-26T07:59:15Z</time>
      </trkpt>
      <trkpt lat="49.97972" lon="5.3006">
        <ele>487</ele>
        <time>2015-04-26T07:59:20Z</time>
      </trkpt>
      <trkpt lat="49.97976" lon="5.30069">
        <ele>487</ele>
        <time>2015-04-26T07:59:26Z</time>
      </trkpt>
      <trkpt lat="49.9798" lon="5.30079">
        <ele>487</ele>
        <time>2015-04-26T07:59:32Z</time>
      </trkpt>
      <trkpt lat="49.97983" lon="5.30089">
        <ele>487</ele>
        <time>2015-04-26T07:59:37Z</time>
      </trkpt>
      <trkpt lat="49.97986" lon="5.30099">
        <ele>487</ele>
        <time>2015-04-26T07:59:42Z</time>
      </trkpt>
      <trkpt lat="49.9799" lon="5.3011">
        <ele>487</ele>
        <time>2015-04-26T07:59:48Z</time>
      </trkpt>
      <trkpt lat="49.97994" lon="5.30119">
        <ele>487</ele>
        <time>2015-04-26T07:59:53Z</time>
      </trkpt>
      <trkpt lat="49.97999" lon="5.30129">
        <ele>487</ele>
        <time>2015-04-26T07:59:59Z</time>
      </trkpt>
      <trkpt lat="49.98" lon="5.30133">
        <ele>486</ele>
        <time>2015-04-26T08:00:04Z</time>
      </trkpt>
      <trkpt lat="49.98001" lon="5.30134">
        <ele>487</ele>
        <time>2015-04-26T08:00:09Z</time>
      </trkpt>
      <trkpt lat="49.97999" lon="5.30131">
        <ele>487</ele>
        <time>2015-04-26T08:00:14Z</time>
      </trkpt>
      <trkpt lat="49.98002" lon="5.30129">
        <ele>487</ele>
        <time>2015-04-26T08:00:20Z</time>
      </trkpt>
      <trkpt lat="49.98003" lon="5.30126">
        <ele>487</ele>
        <time>2015-04-26T08:00:25Z</time>
      </trkpt>
      <trkpt lat="49.98008" lon="5.30123">
        <ele>488</ele>
        <time>2015-04-26T08:00:31Z</time>
      </trkpt>
      <trkpt lat="49.98013" lon="5.30119">
        <ele>488</ele>
        <time>2015-04-26T08:00:37Z</time>
      </trkpt>
      <trkpt lat="49.98018" lon="5.30117">
        <ele>488</ele>
        <time>2015-04-26T08:00:43Z</time>
      </trkpt>
      <trkpt lat="49.98021" lon="5.30113">
        <ele>488</ele>
        <time>2015-04-26T08:00:48Z</time>
      </trkpt>
      <trkpt lat="49.98027" lon="5.30109">
        <ele>488</ele>
        <time>2015-04-26T08:00:54Z</time>
      </trkpt>
      <trkpt lat="49.98031" lon="5.30106">
        <ele>488</ele>
        <time>2015-04-26T08:00:59Z</time>
      </trkpt>
      <trkpt lat="49.98037" lon="5.30102">
        <ele>488</ele>
        <time>2015-04-26T08:01:05Z</time>
      </trkpt>
      <trkpt lat="49.98043" lon="5.30099">
        <ele>488</ele>
        <time>2015-04-26T08:01:10Z</time>
      </trkpt>
      <trkpt lat="49.9805" lon="5.30095">
        <ele>488</ele>
        <time>2015-04-26T08:01:16Z</time>
      </trkpt>
      <trkpt lat="49.98059" lon="5.30091">
        <ele>488</ele>
        <time>2015-04-26T08:01:22Z</time>
      </trkpt>
      <trkpt lat="49.98066" lon="5.30087">
        <ele>488</ele>
        <time>2015-04-26T08:01:28Z</time>
      </trkpt>
      <trkpt lat="49.98072" lon="5.30083">
        <ele>488</ele>
        <time>2015-04-26T08:01:33Z</time>
      </trkpt>
      <trkpt lat="49.98078" lon="5.3008">
        <ele>488</ele>
        <time>2015-04-26T08:01:39Z</time>
      </trkpt>
      <trkpt lat="49.98082" lon="5.30076">
        <ele>488</ele>
        <time>2015-04-26T08:01:44Z</time>
      </trkpt>
      <trkpt lat="49.98087" lon="5.30072">
        <ele>488</ele>
        <time>2015-04-26T08:01:49Z</time>
      </trkpt>
      <trkpt lat="49.9809" lon="5.30068">
        <ele>488</ele>
        <time>2015-04-26T08:01:54Z</time>
      </trkpt>
      <trkpt lat="49.98097" lon="5.30064">
        <ele>488</ele>
        <time>2015-04-26T08:02:00Z</time>
      </trkpt>
      <trkpt lat="49.98103" lon="5.30061">
        <ele>488</ele>
        <time>2015-04-26T08:02:05Z</time>
      </trkpt>
      <trkpt lat="49.98112" lon="5.30058">
        <ele>488</ele>
        <time>2015-04-26T08:02:11Z</time>
      </trkpt>
      <trkpt lat="49.98117" lon="5.30056">
        <ele>487</ele>
        <time>2015-04-26T08:02:16Z</time>
      </trkpt>
      <trkpt lat="49.98124" lon="5.30052">
        <ele>487</ele>
        <time>2015-04-26T08:02:21Z</time>
      </trkpt>
      <trkpt lat="49.98128" lon="5.3005">
        <ele>487</ele>
        <time>2015-04-26T08:02:27Z</time>
      </trkpt>
      <trkpt lat="49.98133" lon="5.30047">
        <ele>487</ele>
        <time>2015-04-26T08:02:32Z</time>
      </trkpt>
      <trkpt lat="49.9814" lon="5.30043">
        <ele>488</ele>
        <time>2015-04-26T08:02:38Z</time>
      </trkpt>
      <trkpt lat="49.98146" lon="5.30042">
        <ele>489</ele>
        <time>2015-04-26T08:02:43Z</time>
      </trkpt>
      <trkpt lat="49.98152" lon="5.3004">
        <ele>488</ele>
        <time>2015-04-26T08:02:48Z</time>
      </trkpt>
      <trkpt lat="49.9816" lon="5.30036">
        <ele>487</ele>
        <time>2015-04-26T08:02:54Z</time>
      </trkpt>
      <trkpt lat="49.98168" lon="5.30035">
        <ele>487</ele>
        <time>2015-04-26T08:03:00Z</time>
      </trkpt>
      <trkpt lat="49.98174" lon="5.30035">
        <ele>488</ele>
        <time>2015-04-26T08:03:06Z</time>
      </trkpt>
      <trkpt lat="49.98179" lon="5.30032">
        <ele>488</ele>
        <time>2015-04-26T08:03:11Z</time>
      </trkpt>
      <trkpt lat="49.98185" lon="5.30029">
        <ele>488</ele>
        <time>2015-04-26T08:03:17Z</time>
      </trkpt>
      <trkpt lat="49.98191" lon="5.30025">
        <ele>488</ele>
        <time>2015-04-26T08:03:22Z</time>
      </trkpt>
      <trkpt lat="49.98198" lon="5.30021">
        <ele>488</ele>
        <time>2015-04-26T08:03:28Z</time>
      </trkpt>
      <trkpt lat="49.98203" lon="5.30019">
        <ele>488</ele>
        <time>2015-04-26T08:03:33Z</time>
      </trkpt>
      <trkpt lat="49.98208" lon="5.30016">
        <ele>488</ele>
        <time>2015-04-26T08:03:39Z</time>
      </trkpt>
      <trkpt lat="49.98215" lon="5.30012">
        <ele>488</ele>
        <time>2015-04-26T08:03:45Z</time>
      </trkpt>
      <trkpt lat="49.98222" lon="5.30008">
        <ele>488</ele>
        <time>2015-04-26T08:03:50Z</time>
      </trkpt>
      <trkpt lat="49.98227" lon="5.30004">
        <ele>488</ele>
        <time>2015-04-26T08:03:56Z</time>
      </trkpt>
      <trkpt lat="49.98234" lon="5.30001">
        <ele>488</ele>
        <time>2015-04-26T08:04:01Z</time>
      </trkpt>
      <trkpt lat="49.98242" lon="5.29998">
        <ele>489</ele>
        <time>2015-04-26T08:04:07Z</time>
      </trkpt>
      <trkpt lat="49.98249" lon="5.29994">
        <ele>489</ele>
        <time>2015-04-26T08:04:12Z</time>
      </trkpt>
      <trkpt lat="49.98256" lon="5.2999">
        <ele>489</ele>
        <time>2015-04-26T08:04:18Z</time>
      </trkpt>
      <trkpt lat="49.98264" lon="5.29987">
        <ele>489</ele>
        <time>2015-04-26T08:04:24Z</time>
      </trkpt>
      <trkpt lat="49.9827" lon="5.29985">
        <ele>489</ele>
        <time>2015-04-26T08:04:29Z</time>
      </trkpt>
      <trkpt lat="49.98275" lon="5.29981">
        <ele>489</ele>
        <time>2015-04-26T08:04:34Z</time>
      </trkpt>
      <trkpt lat="49.98281" lon="5.29979">
        <ele>489</ele>
        <time>2015-04-26T08:04:39Z</time>
      </trkpt>
      <trkpt lat="49.98284" lon="5.29976">
        <ele>489</ele>
        <time>2015-04-26T08:04:45Z</time>
      </trkpt>
      <trkpt lat="49.98291" lon="5.29972">
        <ele>490</ele>
        <time>2015-04-26T08:04:51Z</time>
      </trkpt>
      <trkpt lat="49.98298" lon="5.29969">
        <ele>490</ele>
        <time>2015-04-26T08:04:57Z</time>
      </trkpt>
      <trkpt lat="49.98304" lon="5.29964">
        <ele>490</ele>
        <time>2015-04-26T08:05:02Z</time>
      </trkpt>
      <trkpt lat="49.98309" lon="5.29959">
        <ele>490</ele>
        <time>2015-04-26T08:05:08Z</time>
      </trkpt>
      <trkpt lat="49.98314" lon="5.29956">
        <ele>490</ele>
        <time>2015-04-26T08:05:13Z</time>
      </trkpt>
      <trkpt lat="49.98321" lon="5.29952">
        <ele>490</ele>
        <time>2015-04-26T08:05:19Z</time>
      </trkpt>
      <trkpt lat="49.98329" lon="5.29949">
        <ele>490</ele>
        <time>2015-04-26T08:05:25Z</time>
      </trkpt>
      <trkpt lat="49.98334" lon="5.29944">
        <ele>490</ele>
        <time>2015-04-26T08:05:30Z</time>
      </trkpt>
      <trkpt lat="49.98343" lon="5.29938">
        <ele>490</ele>
        <time>2015-04-26T08:05:36Z</time>
      </trkpt>
      <trkpt lat="49.98349" lon="5.29934">
        <ele>490</ele>
        <time>2015-04-26T08:05:41Z</time>
      </trkpt>
      <trkpt lat="49.98355" lon="5.29931">
        <ele>491</ele>
        <time>2015-04-26T08:05:46Z</time>
      </trkpt>
      <trkpt lat="49.98363" lon="5.29927">
        <ele>491</ele>
        <time>2015-04-26T08:05:52Z</time>
      </trkpt>
      <trkpt lat="49.9837" lon="5.29924">
        <ele>491</ele>
        <time>2015-04-26T08:05:57Z</time>
      </trkpt>
      <trkpt lat="49.98376" lon="5.29922">
        <ele>491</ele>
        <time>2015-04-26T08:06:02Z</time>
      </trkpt>
      <trkpt lat="49.98383" lon="5.29921">
        <ele>491</ele>
        <time>2015-04-26T08:06:07Z</time>
      </trkpt>
      <trkpt lat="49.98389" lon="5.29919">
        <ele>490</ele>
        <time>2015-04-26T08:06:12Z</time>
      </trkpt>
      <trkpt lat="49.98397" lon="5.29916">
        <ele>490</ele>
        <time>2015-04-26T08:06:18Z</time>
      </trkpt>
      <trkpt lat="49.98404" lon="5.29913">
        <ele>490</ele>
        <time>2015-04-26T08:06:24Z</time>
      </trkpt>
      <trkpt lat="49.98411" lon="5.29909">
        <ele>491</ele>
        <time>2015-04-26T08:06:29Z</time>
      </trkpt>
      <trkpt lat="49.98418" lon="5.29904">
        <ele>491</ele>
        <time>2015-04-26T08:06:34Z</time>
      </trkpt>
      <trkpt lat="49.98422" lon="5.29899">
        <ele>492</ele>
        <time>2015-04-26T08:06:39Z</time>
      </trkpt>
      <trkpt lat="49.98428" lon="5.29894">
        <ele>492</ele>
        <time>2015-04-26T08:06:45Z</time>
      </trkpt>
      <trkpt lat="49.98432" lon="5.29889">
        <ele>492</ele>
        <time>2015-04-26T08:06:50Z</time>
      </trkpt>
      <trkpt lat="49.98438" lon="5.29884">
        <ele>492</ele>
        <time>2015-04-26T08:06:55Z</time>
      </trkpt>
      <trkpt lat="49.98444" lon="5.29877">
        <ele>492</ele>
        <time>2015-04-26T08:07:01Z</time>
      </trkpt>
      <trkpt lat="49.9845" lon="5.29869">
        <ele>491</ele>
        <time>2015-04-26T08:07:07Z</time>
      </trkpt>
      <trkpt lat="49.98456" lon="5.2986">
        <ele>491</ele>
        <time>2015-04-26T08:07:13Z</time>
      </trkpt>
      <trkpt lat="49.98462" lon="5.29853">
        <ele>491</ele>
        <time>2015-04-26T08:07:18Z</time>
      </trkpt>
      <trkpt lat="49.98468" lon="5.29844">
        <ele>492</ele>
        <time>2015-04-26T08:07:23Z</time>
      </trkpt>
      <trkpt lat="49.98474" lon="5.29838">
        <ele>491</ele>
        <time>2015-04-26T08:07:28Z</time>
      </trkpt>
      <trkpt lat="49.98479" lon="5.29832">
        <ele>491</ele>
        <time>2015-04-26T08:07:34Z</time>
      </trkpt>
      <trkpt lat="49.98486" lon="5.29826">
        <ele>492</ele>
        <time>2015-04-26T08:07:39Z</time>
      </trkpt>
      <trkpt lat="49.98492" lon="5.2982">
        <ele>492</ele>
        <time>2015-04-26T08:07:45Z</time>
      </trkpt>
      <trkpt lat="49.98499" lon="5.29813">
        <ele>492</ele>
        <time>2015-04-26T08:07:50Z</time>
      </trkpt>
      <trkpt lat="49.98506" lon="5.29804">
        <ele>492</ele>
        <time>2015-04-26T08:07:56Z</time>
      </trkpt>
      <trkpt lat="49.9851" lon="5.29797">
        <ele>492</ele>
        <time>2015-04-26T08:08:01Z</time>
      </trkpt>
      <trkpt lat="49.98515" lon="5.29789">
        <ele>492</ele>
        <time>2015-04-26T08:08:06Z</time>
      </trkpt>
      <trkpt lat="49.9852" lon="5.29778">
        <ele>493</ele>
        <time>2015-04-26T08:08:11Z</time>
      </trkpt>
      <trkpt lat="49.98526" lon="5.2977">
        <ele>492</ele>
        <time>2015-04-26T08:08:17Z</time>
      </trkpt>
      <trkpt lat="49.98531" lon="5.29761">
        <ele>493</ele>
        <time>2015-04-26T08:08:22Z</time>
      </trkpt>
      <trkpt lat="49.98537" lon="5.29753">
        <ele>493</ele>
        <time>2015-04-26T08:08:27Z</time>
      </trkpt>
      <trkpt lat="49.98542" lon="5.29744">
        <ele>493</ele>
        <time>2015-04-26T08:08:33Z</time>
      </trkpt>
      <trkpt lat="49.98548" lon="5.29736">
        <ele>492</ele>
        <time>2015-04-26T08:08:39Z</time>
      </trkpt>
      <trkpt lat="49.98555" lon="5.29727">
        <ele>492</ele>
        <time>2015-04-26T08:08:45Z</time>
      </trkpt>
      <trkpt lat="49.98562" lon="5.29719">
        <ele>492</ele>
        <time>2015-04-26T08:08:51Z</time>
      </trkpt>
      <trkpt lat="49.98568" lon="5.29712">
        <ele>492</ele>
        <time>2015-04-26T08:08:56Z</time>
      </trkpt>
      <trkpt lat="49.98574" lon="5.29705">
        <ele>492</ele>
        <time>2015-04-26T08:09:01Z</time>
      </trkpt>
      <trkpt lat="49.98579" lon="5.29696">
        <ele>492</ele>
        <time>2015-04-26T08:09:07Z</time>
      </trkpt>
      <trkpt lat="49.98585" lon="5.29687">
        <ele>493</ele>
        <time>2015-04-26T08:09:12Z</time>
      </trkpt>
      <trkpt lat="49.98589" lon="5.29681">
        <ele>492</ele>
        <time>2015-04-26T08:09:18Z</time>
      </trkpt>
      <trkpt lat="49.98594" lon="5.29674">
        <ele>493</ele>
        <time>2015-04-26T08:09:23Z</time>
      </trkpt>
      <trkpt lat="49.986" lon="5.29668">
        <ele>493</ele>
        <time>2015-04-26T08:09:28Z</time>
      </trkpt>
      <trkpt lat="49.98605" lon="5.29661">
        <ele>493</ele>
        <time>2015-04-26T08:09:34Z</time>
      </trkpt>
      <trkpt lat="49.98613" lon="5.29654">
        <ele>492</ele>
        <time>2015-04-26T08:09:39Z</time>
      </trkpt>
      <trkpt lat="49.9862" lon="5.29646">
        <ele>492</ele>
        <time>2015-04-26T08:09:45Z</time>
      </trkpt>
      <trkpt lat="49.98625" lon="5.2964">
        <ele>493</ele>
        <time>2015-04-26T08:09:51Z</time>
      </trkpt>
      <trkpt lat="49.98631" lon="5.29634">
        <ele>493</ele>
        <time>2015-04-26T08:09:56Z</time>
      </trkpt>
      <trkpt lat="49.98637" lon="5.29628">
        <ele>493</ele>
        <time>2015-04-26T08:10:01Z</time>
      </trkpt>
      <trkpt lat="49.98643" lon="5.2962">
        <ele>493</ele>
        <time>2015-04-26T08:10:07Z</time>
      </trkpt>
      <trkpt lat="49.98649" lon="5.29612">
        <ele>493</ele>
        <time>2015-04-26T08:10:12Z</time>
      </trkpt>
      <trkpt lat="49.98655" lon="5.29605">
        <ele>492</ele>
        <time>2015-04-26T08:10:18Z</time>
      </trkpt>
      <trkpt lat="49.98661" lon="5.29596">
        <ele>493</ele>
        <time>2015-04-26T08:10:24Z</time>
      </trkpt>
      <trkpt lat="49.98666" lon="5.29589">
        <ele>493</ele>
        <time>2015-04-26T08:10:29Z</time>
      </trkpt>
      <trkpt lat="49.98673" lon="5.29579">
        <ele>492</ele>
        <time>2015-04-26T08:10:34Z</time>
      </trkpt>
      <trkpt lat="49.98679" lon="5.29571">
        <ele>492</ele>
        <time>2015-04-26T08:10:39Z</time>
      </trkpt>
      <trkpt lat="49.98684" lon="5.29564">
        <ele>493</ele>
        <time>2015-04-26T08:10:44Z</time>
      </trkpt>
      <trkpt lat="49.9869" lon="5.29557">
        <ele>493</ele>
        <time>2015-04-26T08:10:50Z</time>
      </trkpt>
      <trkpt lat="49.98694" lon="5.29551">
        <ele>492</ele>
        <time>2015-04-26T08:10:55Z</time>
      </trkpt>
      <trkpt lat="49.987" lon="5.29544">
        <ele>492</ele>
        <time>2015-04-26T08:11:01Z</time>
      </trkpt>
      <trkpt lat="49.98707" lon="5.29535">
        <ele>492</ele>
        <time>2015-04-26T08:11:06Z</time>
      </trkpt>
      <trkpt lat="49.98712" lon="5.29527">
        <ele>492</ele>
        <time>2015-04-26T08:11:12Z</time>
      </trkpt>
      <trkpt lat="49.98716" lon="5.2952">
        <ele>492</ele>
        <time>2015-04-26T08:11:17Z</time>
      </trkpt>
      <trkpt lat="49.98719" lon="5.29515">
        <ele>492</ele>
        <time>2015-04-26T08:11:22Z</time>
      </trkpt>
      <trkpt lat="49.98723" lon="5.2951">
        <ele>492</ele>
        <time>2015-04-26T08:11:27Z</time>
      </trkpt>
      <trkpt lat="49.9873" lon="5.29505">
        <ele>492</ele>
        <time>2015-04-26T08:11:34Z</time>
      </trkpt>
      <trkpt lat="49.98737" lon="5.29498">
        <ele>492</ele>
        <time>2015-04-26T08:11:39Z</time>
      </trkpt>
      <trkpt lat="49.98742" lon="5.29492">
        <ele>492</ele>
        <time>2015-04-26T08:11:45Z</time>
      </trkpt>
      <trkpt lat="49.98746" lon="5.29486">
        <ele>492</ele>
        <time>2015-04-26T08:11:51Z</time>
      </trkpt>
      <trkpt lat="49.98753" lon="5.29479">
        <ele>492</ele>
        <time>2015-04-26T08:11:57Z</time>
      </trkpt>
      <trkpt lat="49.98758" lon="5.29471">
        <ele>492</ele>
        <time>2015-04-26T08:12:02Z</time>
      </trkpt>
      <trkpt lat="49.98764" lon="5.29463">
        <ele>492</ele>
        <time>2015-04-26T08:12:08Z</time>
      </trkpt>
      <trkpt lat="49.98769" lon="5.29453">
        <ele>492</ele>
        <time>2015-04-26T08:12:13Z</time>
      </trkpt>
      <trkpt lat="49.98774" lon="5.29444">
        <ele>492</ele>
        <time>2015-04-26T08:12:19Z</time>
      </trkpt>
      <trkpt lat="49.98779" lon="5.29435">
        <ele>492</ele>
        <time>2015-04-26T08:12:25Z</time>
      </trkpt>
      <trkpt lat="49.98784" lon="5.29427">
        <ele>492</ele>
        <time>2015-04-26T08:12:31Z</time>
      </trkpt>
      <trkpt lat="49.9879" lon="5.2942">
        <ele>492</ele>
        <time>2015-04-26T08:12:37Z</time>
      </trkpt>
      <trkpt lat="49.98797" lon="5.29412">
        <ele>491</ele>
        <time>2015-04-26T08:12:43Z</time>
      </trkpt>
      <trkpt lat="49.98803" lon="5.29405">
        <ele>491</ele>
        <time>2015-04-26T08:12:49Z</time>
      </trkpt>
      <trkpt lat="49.98811" lon="5.29398">
        <ele>491</ele>
        <time>2015-04-26T08:12:55Z</time>
      </trkpt>
      <trkpt lat="49.98818" lon="5.29389">
        <ele>491</ele>
        <time>2015-04-26T08:13:01Z</time>
      </trkpt>
      <trkpt lat="49.98824" lon="5.29381">
        <ele>491</ele>
        <time>2015-04-26T08:13:07Z</time>
      </trkpt>
      <trkpt lat="49.98831" lon="5.29371">
        <ele>490</ele>
        <time>2015-04-26T08:13:13Z</time>
      </trkpt>
      <trkpt lat="49.98833" lon="5.29362">
        <ele>490</ele>
        <time>2015-04-26T08:13:19Z</time>
      </trkpt>
      <trkpt lat="49.98834" lon="5.29353">
        <ele>490</ele>
        <time>2015-04-26T08:13:25Z</time>
      </trkpt>
      <trkpt lat="49.98834" lon="5.29345">
        <ele>490</ele>
        <time>2015-04-26T08:13:31Z</time>
      </trkpt>
      <trkpt lat="49.98834" lon="5.29336">
        <ele>490</ele>
        <time>2015-04-26T08:13:37Z</time>
      </trkpt>
      <trkpt lat="49.98833" lon="5.29325">
        <ele>489</ele>
        <time>2015-04-26T08:13:42Z</time>
      </trkpt>
      <trkpt lat="49.98832" lon="5.29314">
        <ele>489</ele>
        <time>2015-04-26T08:13:49Z</time>
      </trkpt>
      <trkpt lat="49.9883" lon="5.29304">
        <ele>490</ele>
        <time>2015-04-26T08:13:55Z</time>
      </trkpt>
      <trkpt lat="49.98829" lon="5.29293">
        <ele>489</ele>
        <time>2015-04-26T08:14:01Z</time>
      </trkpt>
      <trkpt lat="49.98827" lon="5.29281">
        <ele>488</ele>
        <time>2015-04-26T08:14:07Z</time>
      </trkpt>
      <trkpt lat="49.98823" lon="5.29268">
        <ele>488</ele>
        <time>2015-04-26T08:14:13Z</time>
      </trkpt>
      <trkpt lat="49.98822" lon="5.29256">
        <ele>488</ele>
        <time>2015-04-26T08:14:18Z</time>
      </trkpt>
      <trkpt lat="49.98821" lon="5.29247">
        <ele>488</ele>
        <time>2015-04-26T08:14:23Z</time>
      </trkpt>
      <trkpt lat="49.98818" lon="5.29234">
        <ele>488</ele>
        <time>2015-04-26T08:14:29Z</time>
      </trkpt>
      <trkpt lat="49.98817" lon="5.29222">
        <ele>487</ele>
        <time>2015-04-26T08:14:34Z</time>
      </trkpt>
      <trkpt lat="49.98815" lon="5.29211">
        <ele>487</ele>
        <time>2015-04-26T08:14:39Z</time>
      </trkpt>
      <trkpt lat="49.98812" lon="5.292">
        <ele>487</ele>
        <time>2015-04-26T08:14:45Z</time>
      </trkpt>
      <trkpt lat="49.9881" lon="5.29189">
        <ele>486</ele>
        <time>2015-04-26T08:14:50Z</time>
      </trkpt>
      <trkpt lat="49.98809" lon="5.29176">
        <ele>486</ele>
        <time>2015-04-26T08:14:56Z</time>
      </trkpt>
      <trkpt lat="49.98807" lon="5.29166">
        <ele>485</ele>
        <time>2015-04-26T08:15:01Z</time>
      </trkpt>
      <trkpt lat="49.98804" lon="5.29156">
        <ele>485</ele>
        <time>2015-04-26T08:15:06Z</time>
      </trkpt>
      <trkpt lat="49.98803" lon="5.29145">
        <ele>485</ele>
        <time>2015-04-26T08:15:12Z</time>
      </trkpt>
      <trkpt lat="49.98801" lon="5.29137">
        <ele>484</ele>
        <time>2015-04-26T08:15:17Z</time>
      </trkpt>
      <trkpt lat="49.988" lon="5.29126">
        <ele>484</ele>
        <time>2015-04-26T08:15:22Z</time>
      </trkpt>
      <trkpt lat="49.98798" lon="5.29112">
        <ele>484</ele>
        <time>2015-04-26T08:15:28Z</time>
      </trkpt>
      <trkpt lat="49.98796" lon="5.29105">
        <ele>483</ele>
        <time>2015-04-26T08:15:33Z</time>
      </trkpt>
      <trkpt lat="49.98794" lon="5.29094">
        <ele>483</ele>
        <time>2015-04-26T08:15:39Z</time>
      </trkpt>
      <trkpt lat="49.98793" lon="5.29085">
        <ele>482</ele>
        <time>2015-04-26T08:15:44Z</time>
      </trkpt>
      <trkpt lat="49.98792" lon="5.29074">
        <ele>482</ele>
        <time>2015-04-26T08:15:50Z</time>
      </trkpt>
      <trkpt lat="49.98791" lon="5.29063">
        <ele>482</ele>
        <time>2015-04-26T08:15:55Z</time>
      </trkpt>
      <trkpt lat="49.98788" lon="5.2905">
        <ele>482</ele>
        <time>2015-04-26T08:16:01Z</time>
      </trkpt>
      <trkpt lat="49.98787" lon="5.29042">
        <ele>481</ele>
        <time>2015-04-26T08:16:06Z</time>
      </trkpt>
      <trkpt lat="49.98784" lon="5.29033">
        <ele>481</ele>
        <time>2015-04-26T08:16:11Z</time>
      </trkpt>
      <trkpt lat="49.98781" lon="5.29022">
        <ele>480</ele>
        <time>2015-04-26T08:16:17Z</time>
      </trkpt>
      <trkpt lat="49.98777" lon="5.29008">
        <ele>480</ele>
        <time>2015-04-26T08:16:23Z</time>
      </trkpt>
      <trkpt lat="49.98775" lon="5.28995">
        <ele>479</ele>
        <time>2015-04-26T08:16:29Z</time>
      </trkpt>
      <trkpt lat="49.98774" lon="5.28983">
        <ele>478</ele>
        <time>2015-04-26T08:16:35Z</time>
      </trkpt>
      <trkpt lat="49.98772" lon="5.28968">
        <ele>477</ele>
        <time>2015-04-26T08:16:41Z</time>
      </trkpt>
      <trkpt lat="49.98769" lon="5.28956">
        <ele>477</ele>
        <time>2015-04-26T08:16:46Z</time>
      </trkpt>
      <trkpt lat="49.98767" lon="5.28945">
        <ele>477</ele>
        <time>2015-04-26T08:16:51Z</time>
      </trkpt>
      <trkpt lat="49.98764" lon="5.28933">
        <ele>476</ele>
        <time>2015-04-26T08:16:57Z</time>
      </trkpt>
      <trkpt lat="49.98762" lon="5.28922">
        <ele>476</ele>
        <time>2015-04-26T08:17:03Z</time>
      </trkpt>
      <trkpt lat="49.98759" lon="5.28909">
        <ele>476</ele>
        <time>2015-04-26T08:17:09Z</time>
      </trkpt>
      <trkpt lat="49.98756" lon="5.28899">
        <ele>475</ele>
        <time>2015-04-26T08:17:14Z</time>
      </trkpt>
      <trkpt lat="49.98753" lon="5.28887">
        <ele>475</ele>
        <time>2015-04-26T08:17:20Z</time>
      </trkpt>
      <trkpt lat="49.98749" lon="5.28874">
        <ele>474</ele>
        <time>2015-04-26T08:17:26Z</time>
      </trkpt>
      <trkpt lat="49.98745" lon="5.28862">
        <ele>473</ele>
        <time>2015-04-26T08:17:32Z</time>
      </trkpt>
      <trkpt lat="49.98743" lon="5.28853">
        <ele>473</ele>
        <time>2015-04-26T08:17:37Z</time>
      </trkpt>
      <trkpt lat="49.98739" lon="5.2884">
        <ele>472</ele>
        <time>2015-04-26T08:17:43Z</time>
      </trkpt>
      <trkpt lat="49.98735" lon="5.2883">
        <ele>472</ele>
        <time>2015-04-26T08:17:48Z</time>
      </trkpt>
      <trkpt lat="49.9873" lon="5.28816">
        <ele>471</ele>
        <time>2015-04-26T08:17:54Z</time>
      </trkpt>
      <trkpt lat="49.98728" lon="5.28807">
        <ele>470</ele>
        <time>2015-04-26T08:17:59Z</time>
      </trkpt>
      <trkpt lat="49.98726" lon="5.28794">
        <ele>470</ele>
        <time>2015-04-26T08:18:05Z</time>
      </trkpt>
      <trkpt lat="49.98724" lon="5.28784">
        <ele>470</ele>
        <time>2015-04-26T08:18:11Z</time>
      </trkpt>
      <trkpt lat="49.98722" lon="5.28771">
        <ele>470</ele>
        <time>2015-04-26T08:18:16Z</time>
      </trkpt>
      <trkpt lat="49.98722" lon="5.2876">
        <ele>469</ele>
        <time>2015-04-26T08:18:22Z</time>
      </trkpt>
      <trkpt lat="49.98721" lon="5.28749">
        <ele>469</ele>
        <time>2015-04-26T08:18:27Z</time>
      </trkpt>
      <trkpt lat="49.9872" lon="5.28738">
        <ele>469</ele>
        <time>2015-04-26T08:18:32Z</time>
      </trkpt>
      <trkpt lat="49.98719" lon="5.28725">
        <ele>468</ele>
        <time>2015-04-26T08:18:38Z</time>
      </trkpt>
      <trkpt lat="49.98717" lon="5.28716">
        <ele>468</ele>
        <time>2015-04-26T08:18:43Z</time>
      </trkpt>
      <trkpt lat="49.98716" lon="5.28705">
        <ele>468</ele>
        <time>2015-04-26T08:18:48Z</time>
      </trkpt>
      <trkpt lat="49.98714" lon="5.28695">
        <ele>468</ele>
        <time>2015-04-26T08:18:53Z</time>
      </trkpt>
      <trkpt lat="49.98712" lon="5.28681">
        <ele>467</ele>
        <time>2015-04-26T08:18:58Z</time>
      </trkpt>
      <trkpt lat="49.9871" lon="5.2867">
        <ele>467</ele>
        <time>2015-04-26T08:19:04Z</time>
      </trkpt>
      <trkpt lat="49.98709" lon="5.2866">
        <ele>466</ele>
        <time>2015-04-26T08:19:09Z</time>
      </trkpt>
      <trkpt lat="49.98708" lon="5.2865">
        <ele>466</ele>
        <time>2015-04-26T08:19:15Z</time>
      </trkpt>
      <trkpt lat="49.98708" lon="5.28642">
        <ele>466</ele>
        <time>2015-04-26T08:19:20Z</time>
      </trkpt>
      <trkpt lat="49.98707" lon="5.28633">
        <ele>466</ele>
        <time>2015-04-26T08:19:25Z</time>
      </trkpt>
      <trkpt lat="49.98706" lon="5.28624">
        <ele>466</ele>
        <time>2015-04-26T08:19:30Z</time>
      </trkpt>
      <trkpt lat="49.98706" lon="5.28614">
        <ele>466</ele>
        <time>2015-04-26T08:19:36Z</time>
      </trkpt>
      <trkpt lat="49.98705" lon="5.28605">
        <ele>465</ele>
        <time>2015-04-26T08:19:41Z</time>
      </trkpt>
      <trkpt lat="49.98704" lon="5.28596">
        <ele>465</ele>
        <time>2015-04-26T08:19:46Z</time>
      </trkpt>
      <trkpt lat="49.98703" lon="5.28584">
        <ele>464</ele>
        <time>2015-04-26T08:19:52Z</time>
      </trkpt>
      <trkpt lat="49.987" lon="5.28575">
        <ele>464</ele>
        <time>2015-04-26T08:19:58Z</time>
      </trkpt>
      <trkpt lat="49.98695" lon="5.2857">
        <ele>464</ele>
        <time>2015-04-26T08:20:04Z</time>
      </trkpt>
      <trkpt lat="49.98689" lon="5.28571">
        <ele>462</ele>
        <time>2015-04-26T08:20:10Z</time>
      </trkpt>
      <trkpt lat="49.98687" lon="5.28571">
        <ele>462</ele>
        <time>2015-04-26T08:20:16Z</time>
      </trkpt>
      <trkpt lat="49.98684" lon="5.28569">
        <ele>462</ele>
        <time>2015-04-26T08:20:21Z</time>
      </trkpt>
      <trkpt lat="49.98679" lon="5.28569">
        <ele>462</ele>
        <time>2015-04-26T08:20:27Z</time>
      </trkpt>
      <trkpt lat="49.98676" lon="5.2857">
        <ele>462</ele>
        <time>2015-04-26T08:20:32Z</time>
      </trkpt>
      <trkpt lat="49.98671" lon="5.28571">
        <ele>462</ele>
        <time>2015-04-26T08:20:37Z</time>
      </trkpt>
      <trkpt lat="49.98665" lon="5.28571">
        <ele>461</ele>
        <time>2015-04-26T08:20:43Z</time>
      </trkpt>
      <trkpt lat="49.98658" lon="5.28572">
        <ele>461</ele>
        <time>2015-04-26T08:20:49Z</time>
      </trkpt>
      <trkpt lat="49.98653" lon="5.28574">
        <ele>460</ele>
        <time>2015-04-26T08:20:54Z</time>
      </trkpt>
      <trkpt lat="49.98646" lon="5.28577">
        <ele>460</ele>
        <time>2015-04-26T08:21:00Z</time>
      </trkpt>
      <trkpt lat="49.98639" lon="5.2858">
        <ele>460</ele>
        <time>2015-04-26T08:21:05Z</time>
      </trkpt>
      <trkpt lat="49.98632" lon="5.28583">
        <ele>460</ele>
        <time>2015-04-26T08:21:11Z</time>
      </trkpt>
      <trkpt lat="49.98623" lon="5.28585">
        <ele>459</ele>
        <time>2015-04-26T08:21:17Z</time>
      </trkpt>
      <trkpt lat="49.98614" lon="5.28587">
        <ele>458</ele>
        <time>2015-04-26T08:21:22Z</time>
      </trkpt>
      <trkpt lat="49.98608" lon="5.28588">
        <ele>458</ele>
        <time>2015-04-26T08:21:28Z</time>
      </trkpt>
      <trkpt lat="49.98601" lon="5.28584">
        <ele>457</ele>
        <time>2015-04-26T08:21:34Z</time>
      </trkpt>
      <trkpt lat="49.98597" lon="5.28575">
        <ele>456</ele>
        <time>2015-04-26T08:21:39Z</time>
      </trkpt>
      <trkpt lat="49.98594" lon="5.28566">
        <ele>456</ele>
        <time>2015-04-26T08:21:44Z</time>
      </trkpt>
      <trkpt lat="49.9859" lon="5.28554">
        <ele>456</ele>
        <time>2015-04-26T08:21:50Z</time>
      </trkpt>
      <trkpt lat="49.98587" lon="5.28543">
        <ele>456</ele>
        <time>2015-04-26T08:21:56Z</time>
      </trkpt>
      <trkpt lat="49.98585" lon="5.28533">
        <ele>456</ele>
        <time>2015-04-26T08:22:01Z</time>
      </trkpt>
      <trkpt lat="49.98582" lon="5.28521">
        <ele>456</ele>
        <time>2015-04-26T08:22:06Z</time>
      </trkpt>
      <trkpt lat="49.9858" lon="5.28511">
        <ele>456</ele>
        <time>2015-04-26T08:22:12Z</time>
      </trkpt>
      <trkpt lat="49.98579" lon="5.28499">
        <ele>457</ele>
        <time>2015-04-26T08:22:18Z</time>
      </trkpt>
      <trkpt lat="49.98577" lon="5.28487">
        <ele>456</ele>
        <time>2015-04-26T08:22:23Z</time>
      </trkpt>
      <trkpt lat="49.98576" lon="5.28474">
        <ele>456</ele>
        <time>2015-04-26T08:22:29Z</time>
      </trkpt>
      <trkpt lat="49.98574" lon="5.28463">
        <ele>455</ele>
        <time>2015-04-26T08:22:34Z</time>
      </trkpt>
      <trkpt lat="49.98574" lon="5.28451">
        <ele>454</ele>
        <time>2015-04-26T08:22:39Z</time>
      </trkpt>
      <trkpt lat="49.98572" lon="5.28437">
        <ele>455</ele>
        <time>2015-04-26T08:22:45Z</time>
      </trkpt>
      <trkpt lat="49.9857" lon="5.28423">
        <ele>455</ele>
        <time>2015-04-26T08:22:51Z</time>
      </trkpt>
      <trkpt lat="49.98569" lon="5.28414">
        <ele>455</ele>
        <time>2015-04-26T08:22:56Z</time>
      </trkpt>
      <trkpt lat="49.98566" lon="5.284">
        <ele>455</ele>
        <time>2015-04-26T08:23:02Z</time>
      </trkpt>
      <trkpt lat="49.98565" lon="5.28387">
        <ele>455</ele>
        <time>2015-04-26T08:23:07Z</time>
      </trkpt>
      <trkpt lat="49.98563" lon="5.28376">
        <ele>455</ele>
        <time>2015-04-26T08:23:13Z</time>
      </trkpt>
      <trkpt lat="49.9856" lon="5.28363">
        <ele>456</ele>
        <time>2015-04-26T08:23:19Z</time>
      </trkpt>
      <trkpt lat="49.98558" lon="5.2835">
        <ele>456</ele>
        <time>2015-04-26T08:23:24Z</time>
      </trkpt>
      <trkpt lat="49.98556" lon="5.28335">
        <ele>456</ele>
        <time>2015-04-26T08:23:30Z</time>
      </trkpt>
      <trkpt lat="49.98553" lon="5.2832">
        <ele>456</ele>
        <time>2015-04-26T08:23:36Z</time>
      </trkpt>
      <trkpt lat="49.98552" lon="5.28308">
        <ele>455</ele>
        <time>2015-04-26T08:23:41Z</time>
      </trkpt>
      <trkpt lat="49.98551" lon="5.28297">
        <ele>456</ele>
        <time>2015-04-26T08:23:46Z</time>
      </trkpt>
      <trkpt lat="49.98549" lon="5.28283">
        <ele>456</ele>
        <time>2015-04-26T08:23:52Z</time>
      </trkpt>
      <trkpt lat="49.98543" lon="5.28269">
        <ele>455</ele>
        <time>2015-04-26T08:23:58Z</time>
      </trkpt>
      <trkpt lat="49.98538" lon="5.28256">
        <ele>455</ele>
        <time>2015-04-26T08:24:03Z</time>
      </trkpt>
      <trkpt lat="49.98533" lon="5.28246">
        <ele>454</ele>
        <time>2015-04-26T08:24:09Z</time>
      </trkpt>
      <trkpt lat="49.98529" lon="5.28235">
        <ele>454</ele>
        <time>2015-04-26T08:24:14Z</time>
      </trkpt>
      <trkpt lat="49.98529" lon="5.28226">
        <ele>453</ele>
        <time>2015-04-26T08:24:19Z</time>
      </trkpt>
      <trkpt lat="49.98528" lon="5.28216">
        <ele>452</ele>
        <time>2015-04-26T08:24:24Z</time>
      </trkpt>
      <trkpt lat="49.98527" lon="5.28205">
        <ele>452</ele>
        <time>2015-04-26T08:24:29Z</time>
      </trkpt>
      <trkpt lat="49.98527" lon="5.28194">
        <ele>452</ele>
        <time>2015-04-26T08:24:36Z</time>
      </trkpt>
      <trkpt lat="49.98526" lon="5.28182">
        <ele>452</ele>
        <time>2015-04-26T08:24:41Z</time>
      </trkpt>
      <trkpt lat="49.98524" lon="5.28168">
        <ele>451</ele>
        <time>2015-04-26T08:24:47Z</time>
      </trkpt>
      <trkpt lat="49.98524" lon="5.28158">
        <ele>451</ele>
        <time>2015-04-26T08:24:52Z</time>
      </trkpt>
      <trkpt lat="49.98523" lon="5.28145">
        <ele>451</ele>
        <time>2015-04-26T08:24:58Z</time>
      </trkpt>
      <trkpt lat="49.98522" lon="5.28133">
        <ele>451</ele>
        <time>2015-04-26T08:25:03Z</time>
      </trkpt>
      <trkpt lat="49.98521" lon="5.28119">
        <ele>450</ele>
        <time>2015-04-26T08:25:08Z</time>
      </trkpt>
      <trkpt lat="49.9852" lon="5.28101">
        <ele>450</ele>
        <time>2015-04-26T08:25:14Z</time>
      </trkpt>
      <trkpt lat="49.98519" lon="5.28088">
        <ele>450</ele>
        <time>2015-04-26T08:25:19Z</time>
      </trkpt>
      <trkpt lat="49.98519" lon="5.28072">
        <ele>449</ele>
        <time>2015-04-26T08:25:25Z</time>
      </trkpt>
      <trkpt lat="49.98519" lon="5.28058">
        <ele>448</ele>
        <time>2015-04-26T08:25:30Z</time>
      </trkpt>
      <trkpt lat="49.98518" lon="5.28044">
        <ele>448</ele>
        <time>2015-04-26T08:25:35Z</time>
      </trkpt>
      <trkpt lat="49.98517" lon="5.28028">
        <ele>448</ele>
        <time>2015-04-26T08:25:41Z</time>
      </trkpt>
      <trkpt lat="49.98517" lon="5.28016">
        <ele>447</ele>
        <time>2015-04-26T08:25:46Z</time>
      </trkpt>
      <trkpt lat="49.98517" lon="5.28">
        <ele>447</ele>
        <time>2015-04-26T08:25:51Z</time>
      </trkpt>
      <trkpt lat="49.98517" lon="5.27987">
        <ele>446</ele>
        <time>2015-04-26T08:25:57Z</time>
      </trkpt>
      <trkpt lat="49.98516" lon="5.27971">
        <ele>447</ele>
        <time>2015-04-26T08:26:03Z</time>
      </trkpt>
      <trkpt lat="49.98516" lon="5.27955">
        <ele>446</ele>
        <time>2015-04-26T08:26:09Z</time>
      </trkpt>
      <trkpt lat="49.98517" lon="5.27938">
        <ele>445</ele>
        <time>2015-04-26T08:26:15Z</time>
      </trkpt>
      <trkpt lat="49.98516" lon="5.27924">
        <ele>445</ele>
        <time>2015-04-26T08:26:20Z</time>
      </trkpt>
      <trkpt lat="49.98513" lon="5.27908">
        <ele>444</ele>
        <time>2015-04-26T08:26:26Z</time>
      </trkpt>
      <trkpt lat="49.98511" lon="5.27893">
        <ele>443</ele>
        <time>2015-04-26T08:26:31Z</time>
      </trkpt>
      <trkpt lat="49.98509" lon="5.27875">
        <ele>443</ele>
        <time>2015-04-26T08:26:37Z</time>
      </trkpt>
      <trkpt lat="49.98507" lon="5.27859">
        <ele>443</ele>
        <time>2015-04-26T08:26:43Z</time>
      </trkpt>
      <trkpt lat="49.98505" lon="5.27847">
        <ele>442</ele>
        <time>2015-04-26T08:26:48Z</time>
      </trkpt>
      <trkpt lat="49.98505" lon="5.27833">
        <ele>442</ele>
        <time>2015-04-26T08:26:54Z</time>
      </trkpt>
      <trkpt lat="49.98503" lon="5.27818">
        <ele>441</ele>
        <time>2015-04-26T08:27:00Z</time>
      </trkpt>
      <trkpt lat="49.98501" lon="5.27803">
        <ele>442</ele>
        <time>2015-04-26T08:27:06Z</time>
      </trkpt>
      <trkpt lat="49.98499" lon="5.27788">
        <ele>442</ele>
        <time>2015-04-26T08:27:12Z</time>
      </trkpt>
      <trkpt lat="49.98497" lon="5.27774">
        <ele>442</ele>
        <time>2015-04-26T08:27:18Z</time>
      </trkpt>
      <trkpt lat="49.98496" lon="5.27762">
        <ele>442</ele>
        <time>2015-04-26T08:27:23Z</time>
      </trkpt>
      <trkpt lat="49.98494" lon="5.27749">
        <ele>442</ele>
        <time>2015-04-26T08:27:28Z</time>
      </trkpt>
      <trkpt lat="49.98492" lon="5.27735">
        <ele>441</ele>
        <time>2015-04-26T08:27:34Z</time>
      </trkpt>
      <trkpt lat="49.98489" lon="5.27719">
        <ele>442</ele>
        <time>2015-04-26T08:27:40Z</time>
      </trkpt>
      <trkpt lat="49.98486" lon="5.27705">
        <ele>441</ele>
        <time>2015-04-26T08:27:46Z</time>
      </trkpt>
      <trkpt lat="49.98484" lon="5.27691">
        <ele>441</ele>
        <time>2015-04-26T08:27:52Z</time>
      </trkpt>
      <trkpt lat="49.98481" lon="5.27677">
        <ele>441</ele>
        <time>2015-04-26T08:27:58Z</time>
      </trkpt>
      <trkpt lat="49.98478" lon="5.27663">
        <ele>441</ele>
        <time>2015-04-26T08:28:04Z</time>
      </trkpt>
      <trkpt lat="49.98476" lon="5.27648">
        <ele>441</ele>
        <time>2015-04-26T08:28:10Z</time>
      </trkpt>
      <trkpt lat="49.98473" lon="5.27635">
        <ele>442</ele>
        <time>2015-04-26T08:28:16Z</time>
      </trkpt>
      <trkpt lat="49.9847" lon="5.2762">
        <ele>442</ele>
        <time>2015-04-26T08:28:22Z</time>
      </trkpt>
      <trkpt lat="49.98467" lon="5.27605">
        <ele>442</ele>
        <time>2015-04-26T08:28:28Z</time>
      </trkpt>
      <trkpt lat="49.98463" lon="5.2759">
        <ele>443</ele>
        <time>2015-04-26T08:28:33Z</time>
      </trkpt>
      <trkpt lat="49.98461" lon="5.27578">
        <ele>443</ele>
        <time>2015-04-26T08:28:38Z</time>
      </trkpt>
      <trkpt lat="49.98459" lon="5.27566">
        <ele>443</ele>
        <time>2015-04-26T08:28:44Z</time>
      </trkpt>
      <trkpt lat="49.98457" lon="5.27555">
        <ele>443</ele>
        <time>2015-04-26T08:28:50Z</time>
      </trkpt>
      <trkpt lat="49.98454" lon="5.27541">
        <ele>444</ele>
        <time>2015-04-26T08:28:55Z</time>
      </trkpt>
      <trkpt lat="49.98451" lon="5.27527">
        <ele>444</ele>
        <time>2015-04-26T08:29:01Z</time>
      </trkpt>
      <trkpt lat="49.98449" lon="5.27514">
        <ele>444</ele>
        <time>2015-04-26T08:29:07Z</time>
      </trkpt>
      <trkpt lat="49.98446" lon="5.275">
        <ele>444</ele>
        <time>2015-04-26T08:29:12Z</time>
      </trkpt>
      <trkpt lat="49.98444" lon="5.27485">
        <ele>444</ele>
        <time>2015-04-26T08:29:19Z</time>
      </trkpt>
      <trkpt lat="49.98441" lon="5.27469">
        <ele>444</ele>
        <time>2015-04-26T08:29:25Z</time>
      </trkpt>
      <trkpt lat="49.9844" lon="5.27454">
        <ele>445</ele>
        <time>2015-04-26T08:29:30Z</time>
      </trkpt>
      <trkpt lat="49.98439" lon="5.27438">
        <ele>444</ele>
        <time>2015-04-26T08:29:37Z</time>
      </trkpt>
      <trkpt lat="49.98438" lon="5.27424">
        <ele>445</ele>
        <time>2015-04-26T08:29:42Z</time>
      </trkpt>
      <trkpt lat="49.98438" lon="5.27408">
        <ele>444</ele>
        <time>2015-04-26T08:29:47Z</time>
      </trkpt>
      <trkpt lat="49.98438" lon="5.27393">
        <ele>444</ele>
        <time>2015-04-26T08:29:52Z</time>
      </trkpt>
      <trkpt lat="49.98437" lon="5.27375">
        <ele>444</ele>
        <time>2015-04-26T08:29:59Z</time>
      </trkpt>
      <trkpt lat="49.98438" lon="5.27361">
        <ele>443</ele>
        <time>2015-04-26T08:30:04Z</time>
      </trkpt>
      <trkpt lat="49.98438" lon="5.27349">
        <ele>443</ele>
        <time>2015-04-26T08:30:10Z</time>
      </trkpt>
      <trkpt lat="49.98439" lon="5.27335">
        <ele>443</ele>
        <time>2015-04-26T08:30:15Z</time>
      </trkpt>
      <trkpt lat="49.98439" lon="5.27324">
        <ele>442</ele>
        <time>2015-04-26T08:30:21Z</time>
      </trkpt>
      <trkpt lat="49.98439" lon="5.2731">
        <ele>442</ele>
        <time>2015-04-26T08:30:26Z</time>
      </trkpt>
      <trkpt lat="49.9844" lon="5.27299">
        <ele>443</ele>
        <time>2015-04-26T08:30:32Z</time>
      </trkpt>
      <trkpt lat="49.9844" lon="5.27286">
        <ele>442</ele>
        <time>2015-04-26T08:30:37Z</time>
      </trkpt>
      <trkpt lat="49.9844" lon="5.27277">
        <ele>442</ele>
        <time>2015-04-26T08:30:43Z</time>
      </trkpt>
      <trkpt lat="49.9844" lon="5.27264">
        <ele>442</ele>
        <time>2015-04-26T08:30:48Z</time>
      </trkpt>
      <trkpt lat="49.9844" lon="5.27251">
        <ele>442</ele>
        <time>2015-04-26T08:30:55Z</time>
      </trkpt>
      <trkpt lat="49.9844" lon="5.27234">
        <ele>441</ele>
        <time>2015-04-26T08:31:00Z</time>
      </trkpt>
      <trkpt lat="49.9844" lon="5.27221">
        <ele>439</ele>
        <time>2015-04-26T08:31:06Z</time>
      </trkpt>
      <trkpt lat="49.9844" lon="5.27205">
        <ele>439</ele>
        <time>2015-04-26T08:31:11Z</time>
      </trkpt>
      <trkpt lat="49.9844" lon="5.27191">
        <ele>439</ele>
        <time>2015-04-26T08:31:16Z</time>
      </trkpt>
      <trkpt lat="49.98439" lon="5.27178">
        <ele>438</ele>
        <time>2015-04-26T08:31:22Z</time>
      </trkpt>
      <trkpt lat="49.9844" lon="5.27162">
        <ele>437</ele>
        <time>2015-04-26T08:31:28Z</time>
      </trkpt>
      <trkpt lat="49.98439" lon="5.27146">
        <ele>437</ele>
        <time>2015-04-26T08:31:33Z</time>
      </trkpt>
      <trkpt lat="49.98438" lon="5.27133">
        <ele>436</ele>
        <time>2015-04-26T08:31:38Z</time>
      </trkpt>
      <trkpt lat="49.98439" lon="5.27121">
        <ele>436</ele>
        <time>2015-04-26T08:31:43Z</time>
      </trkpt>
      <trkpt lat="49.98438" lon="5.27106">
        <ele>435</ele>
        <time>2015-04-26T08:31:49Z</time>
      </trkpt>
      <trkpt lat="49.98438" lon="5.27094">
        <ele>435</ele>
        <time>2015-04-26T08:31:55Z</time>
      </trkpt>
      <trkpt lat="49.98438" lon="5.27079">
        <ele>434</ele>
        <time>2015-04-26T08:32:00Z</time>
      </trkpt>
      <trkpt lat="49.98436" lon="5.27065">
        <ele>433</ele>
        <time>2015-04-26T08:32:05Z</time>
      </trkpt>
      <trkpt lat="49.98436" lon="5.27052">
        <ele>432</ele>
        <time>2015-04-26T08:32:10Z</time>
      </trkpt>
      <trkpt lat="49.98434" lon="5.27037">
        <ele>432</ele>
        <time>2015-04-26T08:32:16Z</time>
      </trkpt>
      <trkpt lat="49.98433" lon="5.27025">
        <ele>431</ele>
        <time>2015-04-26T08:32:21Z</time>
      </trkpt>
      <trkpt lat="49.98431" lon="5.27012">
        <ele>431</ele>
        <time>2015-04-26T08:32:26Z</time>
      </trkpt>
      <trkpt lat="49.98429" lon="5.27001">
        <ele>431</ele>
        <time>2015-04-26T08:32:31Z</time>
      </trkpt>
      <trkpt lat="49.98426" lon="5.26987">
        <ele>430</ele>
        <time>2015-04-26T08:32:37Z</time>
      </trkpt>
      <trkpt lat="49.98425" lon="5.26976">
        <ele>430</ele>
        <time>2015-04-26T08:32:43Z</time>
      </trkpt>
      <trkpt lat="49.98422" lon="5.26959">
        <ele>429</ele>
        <time>2015-04-26T08:32:48Z</time>
      </trkpt>
      <trkpt lat="49.9842" lon="5.26945">
        <ele>428</ele>
        <time>2015-04-26T08:32:53Z</time>
      </trkpt>
      <trkpt lat="49.98416" lon="5.26929">
        <ele>428</ele>
        <time>2015-04-26T08:32:59Z</time>
      </trkpt>
      <trkpt lat="49.98414" lon="5.26916">
        <ele>427</ele>
        <time>2015-04-26T08:33:05Z</time>
      </trkpt>
      <trkpt lat="49.98412" lon="5.26904">
        <ele>427</ele>
        <time>2015-04-26T08:33:10Z</time>
      </trkpt>
      <trkpt lat="49.9841" lon="5.26891">
        <ele>427</ele>
        <time>2015-04-26T08:33:15Z</time>
      </trkpt>
      <trkpt lat="49.98409" lon="5.2688">
        <ele>426</ele>
        <time>2015-04-26T08:33:20Z</time>
      </trkpt>
      <trkpt lat="49.98406" lon="5.26864">
        <ele>425</ele>
        <time>2015-04-26T08:33:26Z</time>
      </trkpt>
      <trkpt lat="49.98403" lon="5.26847">
        <ele>425</ele>
        <time>2015-04-26T08:33:32Z</time>
      </trkpt>
      <trkpt lat="49.984" lon="5.26829">
        <ele>426</ele>
        <time>2015-04-26T08:33:39Z</time>
      </trkpt>
      <trkpt lat="49.98398" lon="5.26812">
        <ele>425</ele>
        <time>2015-04-26T08:33:45Z</time>
      </trkpt>
      <trkpt lat="49.98395" lon="5.26796">
        <ele>424</ele>
        <time>2015-04-26T08:33:51Z</time>
      </trkpt>
      <trkpt lat="49.98392" lon="5.2678">
        <ele>424</ele>
        <time>2015-04-26T08:33:56Z</time>
      </trkpt>
      <trkpt lat="49.98389" lon="5.26767">
        <ele>423</ele>
        <time>2015-04-26T08:34:01Z</time>
      </trkpt>
      <trkpt lat="49.98388" lon="5.26751">
        <ele>423</ele>
        <time>2015-04-26T08:34:07Z</time>
      </trkpt>
      <trkpt lat="49.98386" lon="5.26734">
        <ele>423</ele>
        <time>2015-04-26T08:34:13Z</time>
      </trkpt>
      <trkpt lat="49.98382" lon="5.26724">
        <ele>422</ele>
        <time>2015-04-26T08:34:18Z</time>
      </trkpt>
      <trkpt lat="49.9838" lon="5.2671">
        <ele>421</ele>
        <time>2015-04-26T08:34:25Z</time>
      </trkpt>
      <trkpt lat="49.98378" lon="5.26694">
        <ele>421</ele>
        <time>2015-04-26T08:34:30Z</time>
      </trkpt>
      <trkpt lat="49.98376" lon="5.26676">
        <ele>421</ele>
        <time>2015-04-26T08:34:36Z</time>
      </trkpt>
      <trkpt lat="49.98375" lon="5.26659">
        <ele>421</ele>
        <time>2015-04-26T08:34:42Z</time>
      </trkpt>
      <trkpt lat="49.98372" lon="5.26642">
        <ele>420</ele>
        <time>2015-04-26T08:34:48Z</time>
      </trkpt>
      <trkpt lat="49.9837" lon="5.26629">
        <ele>420</ele>
        <time>2015-04-26T08:34:54Z</time>
      </trkpt>
      <trkpt lat="49.98368" lon="5.26613">
        <ele>420</ele>
        <time>2015-04-26T08:34:59Z</time>
      </trkpt>
      <trkpt lat="49.98366" lon="5.26598">
        <ele>419</ele>
        <time>2015-04-26T08:35:04Z</time>
      </trkpt>
      <trkpt lat="49.98365" lon="5.26583">
        <ele>419</ele>
        <time>2015-04-26T08:35:11Z</time>
      </trkpt>
      <trkpt lat="49.98362" lon="5.26569">
        <ele>419</ele>
        <time>2015-04-26T08:35:17Z</time>
      </trkpt>
      <trkpt lat="49.9836" lon="5.26556">
        <ele>419</ele>
        <time>2015-04-26T08:35:22Z</time>
      </trkpt>
      <trkpt lat="49.98358" lon="5.26546">
        <ele>419</ele>
        <time>2015-04-26T08:35:27Z</time>
      </trkpt>
      <trkpt lat="49.98357" lon="5.26536">
        <ele>418</ele>
        <time>2015-04-26T08:35:33Z</time>
      </trkpt>
      <trkpt lat="49.98356" lon="5.26521">
        <ele>418</ele>
        <time>2015-04-26T08:35:39Z</time>
      </trkpt>
      <trkpt lat="49.98355" lon="5.26506">
        <ele>418</ele>
        <time>2015-04-26T08:35:44Z</time>
      </trkpt>
      <trkpt lat="49.98354" lon="5.26494">
        <ele>418</ele>
        <time>2015-04-26T08:35:50Z</time>
      </trkpt>
      <trkpt lat="49.98353" lon="5.26478">
        <ele>417</ele>
        <time>2015-04-26T08:35:56Z</time>
      </trkpt>
      <trkpt lat="49.98351" lon="5.26464">
        <ele>417</ele>
        <time>2015-04-26T08:36:01Z</time>
      </trkpt>
      <trkpt lat="49.98349" lon="5.26445">
        <ele>417</ele>
        <time>2015-04-26T08:36:07Z</time>
      </trkpt>
      <trkpt lat="49.98346" lon="5.2643">
        <ele>416</ele>
        <time>2015-04-26T08:36:12Z</time>
      </trkpt>
      <trkpt lat="49.98345" lon="5.2642">
        <ele>416</ele>
        <time>2015-04-26T08:36:18Z</time>
      </trkpt>
      <trkpt lat="49.98342" lon="5.26407">
        <ele>416</ele>
        <time>2015-04-26T08:36:24Z</time>
      </trkpt>
      <trkpt lat="49.98338" lon="5.26393">
        <ele>416</ele>
        <time>2015-04-26T08:36:29Z</time>
      </trkpt>
      <trkpt lat="49.98335" lon="5.26382">
        <ele>415</ele>
        <time>2015-04-26T08:36:35Z</time>
      </trkpt>
      <trkpt lat="49.9833" lon="5.26368">
        <ele>414</ele>
        <time>2015-04-26T08:36:40Z</time>
      </trkpt>
      <trkpt lat="49.98325" lon="5.26352">
        <ele>415</ele>
        <time>2015-04-26T08:36:46Z</time>
      </trkpt>
      <trkpt lat="49.98321" lon="5.26339">
        <ele>415</ele>
        <time>2015-04-26T08:36:53Z</time>
      </trkpt>
      <trkpt lat="49.98318" lon="5.26328">
        <ele>414</ele>
        <time>2015-04-26T08:36:58Z</time>
      </trkpt>
      <trkpt lat="49.98314" lon="5.26315">
        <ele>413</ele>
        <time>2015-04-26T08:37:03Z</time>
      </trkpt>
      <trkpt lat="49.98311" lon="5.26305">
        <ele>413</ele>
        <time>2015-04-26T08:37:09Z</time>
      </trkpt>
      <trkpt lat="49.98307" lon="5.26293">
        <ele>412</ele>
        <time>2015-04-26T08:37:14Z</time>
      </trkpt>
      <trkpt lat="49.98303" lon="5.2628">
        <ele>412</ele>
        <time>2015-04-26T08:37:19Z</time>
      </trkpt>
      <trkpt lat="49.98298" lon="5.26263">
        <ele>411</ele>
        <time>2015-04-26T08:37:26Z</time>
      </trkpt>
      <trkpt lat="49.98292" lon="5.26247">
        <ele>411</ele>
        <time>2015-04-26T08:37:32Z</time>
      </trkpt>
      <trkpt lat="49.98286" lon="5.26232">
        <ele>410</ele>
        <time>2015-04-26T08:37:37Z</time>
      </trkpt>
      <trkpt lat="49.98282" lon="5.26218">
        <ele>409</ele>
        <time>2015-04-26T08:37:43Z</time>
      </trkpt>
      <trkpt lat="49.98279" lon="5.26205">
        <ele>409</ele>
        <time>2015-04-26T08:37:49Z</time>
      </trkpt>
      <trkpt lat="49.98277" lon="5.26189">
        <ele>410</ele>
        <time>2015-04-26T08:37:55Z</time>
      </trkpt>
      <trkpt lat="49.98272" lon="5.26171">
        <ele>408</ele>
        <time>2015-04-26T08:38:00Z</time>
      </trkpt>
      <trkpt lat="49.98267" lon="5.26154">
        <ele>408</ele>
        <time>2015-04-26T08:38:06Z</time>
      </trkpt>
      <trkpt lat="49.98263" lon="5.2614">
        <ele>408</ele>
        <time>2015-04-26T08:38:12Z</time>
      </trkpt>
      <trkpt lat="49.98259" lon="5.26123">
        <ele>407</ele>
        <time>2015-04-26T08:38:18Z</time>
      </trkpt>
      <trkpt lat="49.98257" lon="5.26107">
        <ele>407</ele>
        <time>2015-04-26T08:38:23Z</time>
      </trkpt>
      <trkpt lat="49.98257" lon="5.26096">
        <ele>407</ele>
        <time>2015-04-26T08:38:28Z</time>
      </trkpt>
      <trkpt lat="49.98256" lon="5.26084">
        <ele>406</ele>
        <time>2015-04-26T08:38:33Z</time>
      </trkpt>
      <trkpt lat="49.98253" lon="5.26068">
        <ele>406</ele>
        <time>2015-04-26T08:38:39Z</time>
      </trkpt>
      <trkpt lat="49.9825" lon="5.26057">
        <ele>405</ele>
        <time>2015-04-26T08:38:46Z</time>
      </trkpt>
      <trkpt lat="49.98248" lon="5.26044">
        <ele>406</ele>
        <time>2015-04-26T08:38:51Z</time>
      </trkpt>
      <trkpt lat="49.98244" lon="5.26034">
        <ele>405</ele>
        <time>2015-04-26T08:38:56Z</time>
      </trkpt>
      <trkpt lat="49.9824" lon="5.26018">
        <ele>403</ele>
        <time>2015-04-26T08:39:02Z</time>
      </trkpt>
      <trkpt lat="49.98236" lon="5.26006">
        <ele>402</ele>
        <time>2015-04-26T08:39:07Z</time>
      </trkpt>
      <trkpt lat="49.98232" lon="5.25991">
        <ele>402</ele>
        <time>2015-04-26T08:39:13Z</time>
      </trkpt>
      <trkpt lat="49.98228" lon="5.25978">
        <ele>402</ele>
        <time>2015-04-26T08:39:18Z</time>
      </trkpt>
      <trkpt lat="49.98226" lon="5.25967">
        <ele>401</ele>
        <time>2015-04-26T08:39:24Z</time>
      </trkpt>
      <trkpt lat="49.98223" lon="5.25952">
        <ele>401</ele>
        <time>2015-04-26T08:39:29Z</time>
      </trkpt>
      <trkpt lat="49.9822" lon="5.25937">
        <ele>400</ele>
        <time>2015-04-26T08:39:35Z</time>
      </trkpt>
      <trkpt lat="49.98219" lon="5.25928">
        <ele>399</ele>
        <time>2015-04-26T08:39:40Z</time>
      </trkpt>
      <trkpt lat="49.98217" lon="5.25916">
        <ele>399</ele>
        <time>2015-04-26T08:39:46Z</time>
      </trkpt>
      <trkpt lat="49.98215" lon="5.25906">
        <ele>399</ele>
        <time>2015-04-26T08:39:51Z</time>
      </trkpt>
      <trkpt lat="49.98212" lon="5.25893">
        <ele>399</ele>
        <time>2015-04-26T08:39:57Z</time>
      </trkpt>
      <trkpt lat="49.98209" lon="5.2588">
        <ele>399</ele>
        <time>2015-04-26T08:40:02Z</time>
      </trkpt>
      <trkpt lat="49.98206" lon="5.25867">
        <ele>398</ele>
        <time>2015-04-26T08:40:07Z</time>
      </trkpt>
      <trkpt lat="49.98201" lon="5.25849">
        <ele>398</ele>
        <time>2015-04-26T08:40:14Z</time>
      </trkpt>
      <trkpt lat="49.98196" lon="5.25835">
        <ele>398</ele>
        <time>2015-04-26T08:40:19Z</time>
      </trkpt>
      <trkpt lat="49.98193" lon="5.2582">
        <ele>399</ele>
        <time>2015-04-26T08:40:24Z</time>
      </trkpt>
      <trkpt lat="49.9819" lon="5.25808">
        <ele>399</ele>
        <time>2015-04-26T08:40:29Z</time>
      </trkpt>
      <trkpt lat="49.98187" lon="5.25796">
        <ele>398</ele>
        <time>2015-04-26T08:40:35Z</time>
      </trkpt>
      <trkpt lat="49.98185" lon="5.25784">
        <ele>398</ele>
        <time>2015-04-26T08:40:41Z</time>
      </trkpt>
      <trkpt lat="49.98182" lon="5.25775">
        <ele>398</ele>
        <time>2015-04-26T08:40:46Z</time>
      </trkpt>
      <trkpt lat="49.98179" lon="5.25762">
        <ele>398</ele>
        <time>2015-04-26T08:40:53Z</time>
      </trkpt>
      <trkpt lat="49.98175" lon="5.25746">
        <ele>399</ele>
        <time>2015-04-26T08:40:58Z</time>
      </trkpt>
      <trkpt lat="49.98172" lon="5.25735">
        <ele>399</ele>
        <time>2015-04-26T08:41:03Z</time>
      </trkpt>
      <trkpt lat="49.98168" lon="5.25722">
        <ele>399</ele>
        <time>2015-04-26T08:41:09Z</time>
      </trkpt>
      <trkpt lat="49.98167" lon="5.25711">
        <ele>400</ele>
        <time>2015-04-26T08:41:16Z</time>
      </trkpt>
      <trkpt lat="49.98164" lon="5.25701">
        <ele>401</ele>
        <time>2015-04-26T08:41:21Z</time>
      </trkpt>
      <trkpt lat="49.98164" lon="5.25693">
        <ele>402</ele>
        <time>2015-04-26T08:41:26Z</time>
      </trkpt>
      <trkpt lat="49.98163" lon="5.25682">
        <ele>402</ele>
        <time>2015-04-26T08:41:31Z</time>
      </trkpt>
      <trkpt lat="49.98161" lon="5.2567">
        <ele>402</ele>
        <time>2015-04-26T08:41:37Z</time>
      </trkpt>
      <trkpt lat="49.98157" lon="5.25658">
        <ele>403</ele>
        <time>2015-04-26T08:41:42Z</time>
      </trkpt>
      <trkpt lat="49.9815" lon="5.25647">
        <ele>403</ele>
        <time>2015-04-26T08:41:48Z</time>
      </trkpt>
      <trkpt lat="49.98141" lon="5.2564">
        <ele>403</ele>
        <time>2015-04-26T08:41:54Z</time>
      </trkpt>
      <trkpt lat="49.98134" lon="5.25634">
        <ele>402</ele>
        <time>2015-04-26T08:41:59Z</time>
      </trkpt>
      <trkpt lat="49.98127" lon="5.25631">
        <ele>402</ele>
        <time>2015-04-26T08:42:04Z</time>
      </trkpt>
      <trkpt lat="49.98118" lon="5.25626">
        <ele>402</ele>
        <time>2015-04-26T08:42:10Z</time>
      </trkpt>
      <trkpt lat="49.9811" lon="5.25623">
        <ele>402</ele>
        <time>2015-04-26T08:42:15Z</time>
      </trkpt>
      <trkpt lat="49.98101" lon="5.2562">
        <ele>402</ele>
        <time>2015-04-26T08:42:21Z</time>
      </trkpt>
      <trkpt lat="49.98093" lon="5.25619">
        <ele>402</ele>
        <time>2015-04-26T08:42:26Z</time>
      </trkpt>
      <trkpt lat="49.98083" lon="5.25617">
        <ele>402</ele>
        <time>2015-04-26T08:42:32Z</time>
      </trkpt>
      <trkpt lat="49.98076" lon="5.25615">
        <ele>401</ele>
        <time>2015-04-26T08:42:37Z</time>
      </trkpt>
      <trkpt lat="49.98068" lon="5.25616">
        <ele>401</ele>
        <time>2015-04-26T08:42:43Z</time>
      </trkpt>
      <trkpt lat="49.98059" lon="5.25617">
        <ele>401</ele>
        <time>2015-04-26T08:42:48Z</time>
      </trkpt>
      <trkpt lat="49.98051" lon="5.25617">
        <ele>400</ele>
        <time>2015-04-26T08:42:54Z</time>
      </trkpt>
      <trkpt lat="49.98043" lon="5.25618">
        <ele>400</ele>
        <time>2015-04-26T08:42:59Z</time>
      </trkpt>
      <trkpt lat="49.98035" lon="5.2562">
        <ele>400</ele>
        <time>2015-04-26T08:43:04Z</time>
      </trkpt>
      <trkpt lat="49.98026" lon="5.2562">
        <ele>399</ele>
        <time>2015-04-26T08:43:10Z</time>
      </trkpt>
      <trkpt lat="49.98017" lon="5.2562">
        <ele>398</ele>
        <time>2015-04-26T08:43:16Z</time>
      </trkpt>
      <trkpt lat="49.98007" lon="5.25623">
        <ele>398</ele>
        <time>2015-04-26T08:43:21Z</time>
      </trkpt>
      <trkpt lat="49.97999" lon="5.25624">
        <ele>398</ele>
        <time>2015-04-26T08:43:26Z</time>
      </trkpt>
      <trkpt lat="49.9799" lon="5.25627">
        <ele>396</ele>
        <time>2015-04-26T08:43:32Z</time>
      </trkpt>
      <trkpt lat="49.97979" lon="5.25631">
        <ele>396</ele>
        <time>2015-04-26T08:43:38Z</time>
      </trkpt>
      <trkpt lat="49.97972" lon="5.25633">
        <ele>396</ele>
        <time>2015-04-26T08:43:44Z</time>
      </trkpt>
      <trkpt lat="49.97963" lon="5.25638">
        <ele>395</ele>
        <time>2015-04-26T08:43:49Z</time>
      </trkpt>
      <trkpt lat="49.97956" lon="5.25641">
        <ele>394</ele>
        <time>2015-04-26T08:43:54Z</time>
      </trkpt>
      <trkpt lat="49.97949" lon="5.25645">
        <ele>395</ele>
        <time>2015-04-26T08:44:00Z</time>
      </trkpt>
      <trkpt lat="49.97941" lon="5.2565">
        <ele>395</ele>
        <time>2015-04-26T08:44:05Z</time>
      </trkpt>
      <trkpt lat="49.97932" lon="5.25653">
        <ele>394</ele>
        <time>2015-04-26T08:44:11Z</time>
      </trkpt>
      <trkpt lat="49.97925" lon="5.25662">
        <ele>394</ele>
        <time>2015-04-26T08:44:17Z</time>
      </trkpt>
      <trkpt lat="49.97918" lon="5.25668">
        <ele>393</ele>
        <time>2015-04-26T08:44:23Z</time>
      </trkpt>
      <trkpt lat="49.97912" lon="5.25673">
        <ele>393</ele>
        <time>2015-04-26T08:44:28Z</time>
      </trkpt>
      <trkpt lat="49.97905" lon="5.25681">
        <ele>394</ele>
        <time>2015-04-26T08:44:34Z</time>
      </trkpt>
      <trkpt lat="49.97899" lon="5.2569">
        <ele>393</ele>
        <time>2015-04-26T08:44:39Z</time>
      </trkpt>
      <trkpt lat="49.97895" lon="5.25698">
        <ele>393</ele>
        <time>2015-04-26T08:44:45Z</time>
      </trkpt>
      <trkpt lat="49.97891" lon="5.25707">
        <ele>393</ele>
        <time>2015-04-26T08:44:51Z</time>
      </trkpt>
      <trkpt lat="49.97887" lon="5.25719">
        <ele>393</ele>
        <time>2015-04-26T08:44:57Z</time>
      </trkpt>
      <trkpt lat="49.97883" lon="5.25729">
        <ele>393</ele>
        <time>2015-04-26T08:45:02Z</time>
      </trkpt>
      <trkpt lat="49.97879" lon="5.25742">
        <ele>393</ele>
        <time>2015-04-26T08:45:08Z</time>
      </trkpt>
      <trkpt lat="49.97876" lon="5.25754">
        <ele>393</ele>
        <time>2015-04-26T08:45:13Z</time>
      </trkpt>
      <trkpt lat="49.97872" lon="5.25769">
        <ele>394</ele>
        <time>2015-04-26T08:45:19Z</time>
      </trkpt>
      <trkpt lat="49.97869" lon="5.25781">
        <ele>394</ele>
        <time>2015-04-26T08:45:24Z</time>
      </trkpt>
      <trkpt lat="49.97867" lon="5.25794">
        <ele>394</ele>
        <time>2015-04-26T08:45:30Z</time>
      </trkpt>
      <trkpt lat="49.97865" lon="5.25805">
        <ele>394</ele>
        <time>2015-04-26T08:45:35Z</time>
      </trkpt>
      <trkpt lat="49.97863" lon="5.25818">
        <ele>395</ele>
        <time>2015-04-26T08:45:41Z</time>
      </trkpt>
      <trkpt lat="49.9786" lon="5.25831">
        <ele>395</ele>
        <time>2015-04-26T08:45:46Z</time>
      </trkpt>
      <trkpt lat="49.97858" lon="5.25846">
        <ele>396</ele>
        <time>2015-04-26T08:45:52Z</time>
      </trkpt>
      <trkpt lat="49.97856" lon="5.25859">
        <ele>396</ele>
        <time>2015-04-26T08:45:58Z</time>
      </trkpt>
      <trkpt lat="49.97855" lon="5.2587">
        <ele>396</ele>
        <time>2015-04-26T08:46:03Z</time>
      </trkpt>
      <trkpt lat="49.97854" lon="5.2588">
        <ele>397</ele>
        <time>2015-04-26T08:46:08Z</time>
      </trkpt>
      <trkpt lat="49.97852" lon="5.25894">
        <ele>397</ele>
        <time>2015-04-26T08:46:14Z</time>
      </trkpt>
      <trkpt lat="49.97852" lon="5.25904">
        <ele>398</ele>
        <time>2015-04-26T08:46:19Z</time>
      </trkpt>
      <trkpt lat="49.9785" lon="5.25917">
        <ele>399</ele>
        <time>2015-04-26T08:46:25Z</time>
      </trkpt>
      <trkpt lat="49.97848" lon="5.25928">
        <ele>400</ele>
        <time>2015-04-26T08:46:30Z</time>
      </trkpt>
      <trkpt lat="49.97846" lon="5.25944">
        <ele>400</ele>
        <time>2015-04-26T08:46:36Z</time>
      </trkpt>
      <trkpt lat="49.97845" lon="5.25959">
        <ele>401</ele>
        <time>2015-04-26T08:46:42Z</time>
      </trkpt>
      <trkpt lat="49.97844" lon="5.25973">
        <ele>401</ele>
        <time>2015-04-26T08:46:47Z</time>
      </trkpt>
      <trkpt lat="49.97844" lon="5.25986">
        <ele>400</ele>
        <time>2015-04-26T08:46:53Z</time>
      </trkpt>
      <trkpt lat="49.97844" lon="5.25998">
        <ele>401</ele>
        <time>2015-04-26T08:46:58Z</time>
      </trkpt>
      <trkpt lat="49.97842" lon="5.26014">
        <ele>402</ele>
        <time>2015-04-26T08:47:04Z</time>
      </trkpt>
      <trkpt lat="49.97841" lon="5.26027">
        <ele>402</ele>
        <time>2015-04-26T08:47:09Z</time>
      </trkpt>
      <trkpt lat="49.9784" lon="5.26041">
        <ele>403</ele>
        <time>2015-04-26T08:47:15Z</time>
      </trkpt>
      <trkpt lat="49.97839" lon="5.26053">
        <ele>403</ele>
        <time>2015-04-26T08:47:20Z</time>
      </trkpt>
      <trkpt lat="49.97838" lon="5.26067">
        <ele>404</ele>
        <time>2015-04-26T08:47:26Z</time>
      </trkpt>
      <trkpt lat="49.97837" lon="5.26081">
        <ele>405</ele>
        <time>2015-04-26T08:47:32Z</time>
      </trkpt>
      <trkpt lat="49.97837" lon="5.26091">
        <ele>405</ele>
        <time>2015-04-26T08:47:37Z</time>
      </trkpt>
      <trkpt lat="49.97838" lon="5.26107">
        <ele>406</ele>
        <time>2015-04-26T08:47:43Z</time>
      </trkpt>
      <trkpt lat="49.97839" lon="5.26123">
        <ele>407</ele>
        <time>2015-04-26T08:47:49Z</time>
      </trkpt>
      <trkpt lat="49.97839" lon="5.26135">
        <ele>407</ele>
        <time>2015-04-26T08:47:54Z</time>
      </trkpt>
      <trkpt lat="49.97839" lon="5.2615">
        <ele>408</ele>
        <time>2015-04-26T08:48:00Z</time>
      </trkpt>
      <trkpt lat="49.97838" lon="5.26164">
        <ele>408</ele>
        <time>2015-04-26T08:48:06Z</time>
      </trkpt>
      <trkpt lat="49.97839" lon="5.26179">
        <ele>409</ele>
        <time>2015-04-26T08:48:12Z</time>
      </trkpt>
      <trkpt lat="49.9784" lon="5.26191">
        <ele>409</ele>
        <time>2015-04-26T08:48:17Z</time>
      </trkpt>
      <trkpt lat="49.97842" lon="5.26207">
        <ele>410</ele>
        <time>2015-04-26T08:48:23Z</time>
      </trkpt>
      <trkpt lat="49.97842" lon="5.26219">
        <ele>410</ele>
        <time>2015-04-26T08:48:28Z</time>
      </trkpt>
      <trkpt lat="49.97844" lon="5.26234">
        <ele>411</ele>
        <time>2015-04-26T08:48:34Z</time>
      </trkpt>
      <trkpt lat="49.97844" lon="5.26245">
        <ele>412</ele>
        <time>2015-04-26T08:48:39Z</time>
      </trkpt>
      <trkpt lat="49.97845" lon="5.2626">
        <ele>412</ele>
        <time>2015-04-26T08:48:45Z</time>
      </trkpt>
      <trkpt lat="49.97839" lon="5.2659">
        <ele>421</ele>
        <time>2015-04-26T08:48:50Z</time>
      </trkpt>
      <trkpt lat="49.9784" lon="5.26599">
        <ele>421</ele>
        <time>2015-04-26T08:48:56Z</time>
      </trkpt>
      <trkpt lat="49.97839" lon="5.26607">
        <ele>421</ele>
        <time>2015-04-26T08:49:01Z</time>
      </trkpt>
      <trkpt lat="49.97839" lon="5.26615">
        <ele>421</ele>
        <time>2015-04-26T08:49:06Z</time>
      </trkpt>
      <trkpt lat="49.97838" lon="5.26626">
        <ele>421</ele>
        <time>2015-04-26T08:49:12Z</time>
      </trkpt>
      <trkpt lat="49.97838" lon="5.26638">
        <ele>422</ele>
        <time>2015-04-26T08:49:18Z</time>
      </trkpt>
      <trkpt lat="49.97837" lon="5.2665">
        <ele>421</ele>
        <time>2015-04-26T08:49:24Z</time>
      </trkpt>
      <trkpt lat="49.97837" lon="5.26663">
        <ele>423</ele>
        <time>2015-04-26T08:49:30Z</time>
      </trkpt>
      <trkpt lat="49.97836" lon="5.26673">
        <ele>423</ele>
        <time>2015-04-26T08:49:35Z</time>
      </trkpt>
      <trkpt lat="49.97836" lon="5.26681">
        <ele>423</ele>
        <time>2015-04-26T08:49:41Z</time>
      </trkpt>
      <trkpt lat="49.97835" lon="5.26678">
        <ele>422</ele>
        <time>2015-04-26T08:49:46Z</time>
      </trkpt>
      <trkpt lat="49.97836" lon="5.26669">
        <ele>422</ele>
        <time>2015-04-26T08:49:52Z</time>
      </trkpt>
      <trkpt lat="49.97836" lon="5.26661">
        <ele>422</ele>
        <time>2015-04-26T08:49:57Z</time>
      </trkpt>
      <trkpt lat="49.97837" lon="5.26653">
        <ele>422</ele>
        <time>2015-04-26T08:50:03Z</time>
      </trkpt>
      <trkpt lat="49.97837" lon="5.26648">
        <ele>422</ele>
        <time>2015-04-26T08:50:08Z</time>
      </trkpt>
      <trkpt lat="49.97838" lon="5.26639">
        <ele>421</ele>
        <time>2015-04-26T08:50:14Z</time>
      </trkpt>
      <trkpt lat="49.97839" lon="5.26628">
        <ele>421</ele>
        <time>2015-04-26T08:50:20Z</time>
      </trkpt>
      <trkpt lat="49.97839" lon="5.26618">
        <ele>421</ele>
        <time>2015-04-26T08:50:26Z</time>
      </trkpt>
      <trkpt lat="49.97839" lon="5.26607">
        <ele>421</ele>
        <time>2015-04-26T08:50:31Z</time>
      </trkpt>
      <trkpt lat="49.97841" lon="5.26597">
        <ele>421</ele>
        <time>2015-04-26T08:50:36Z</time>
      </trkpt>
      <trkpt lat="49.97842" lon="5.26585">
        <ele>420</ele>
        <time>2015-04-26T08:50:42Z</time>
      </trkpt>
      <trkpt lat="49.97843" lon="5.26575">
        <ele>420</ele>
        <time>2015-04-26T08:50:47Z</time>
      </trkpt>
      <trkpt lat="49.97844" lon="5.26562">
        <ele>420</ele>
        <time>2015-04-26T08:50:53Z</time>
      </trkpt>
      <trkpt lat="49.97844" lon="5.2655">
        <ele>420</ele>
        <time>2015-04-26T08:50:58Z</time>
      </trkpt>
      <trkpt lat="49.97844" lon="5.26538">
        <ele>419</ele>
        <time>2015-04-26T08:51:04Z</time>
      </trkpt>
      <trkpt lat="49.97844" lon="5.26527">
        <ele>419</ele>
        <time>2015-04-26T08:51:09Z</time>
      </trkpt>
      <trkpt lat="49.97844" lon="5.26516">
        <ele>418</ele>
        <time>2015-04-26T08:51:14Z</time>
      </trkpt>
      <trkpt lat="49.97844" lon="5.26502">
        <ele>418</ele>
        <time>2015-04-26T08:51:20Z</time>
      </trkpt>
      <trkpt lat="49.97844" lon="5.26492">
        <ele>418</ele>
        <time>2015-04-26T08:51:25Z</time>
      </trkpt>
      <trkpt lat="49.97845" lon="5.26479">
        <ele>418</ele>
        <time>2015-04-26T08:51:31Z</time>
      </trkpt>
      <trkpt lat="49.97845" lon="5.26466">
        <ele>417</ele>
        <time>2015-04-26T08:51:37Z</time>
      </trkpt>
      <trkpt lat="49.97844" lon="5.26452">
        <ele>417</ele>
        <time>2015-04-26T08:51:43Z</time>
      </trkpt>
      <trkpt lat="49.97844" lon="5.26438">
        <ele>416</ele>
        <time>2015-04-26T08:51:49Z</time>
      </trkpt>
      <trkpt lat="49.97845" lon="5.26426">
        <ele>416</ele>
        <time>2015-04-26T08:51:54Z</time>
      </trkpt>
      <trkpt lat="49.97846" lon="5.26414">
        <ele>416</ele>
        <time>2015-04-26T08:51:59Z</time>
      </trkpt>
      <trkpt lat="49.97846" lon="5.26402">
        <ele>416</ele>
        <time>2015-04-26T08:52:04Z</time>
      </trkpt>
      <trkpt lat="49.97847" lon="5.26391">
        <ele>415</ele>
        <time>2015-04-26T08:52:09Z</time>
      </trkpt>
      <trkpt lat="49.97847" lon="5.26377">
        <ele>415</ele>
        <time>2015-04-26T08:52:15Z</time>
      </trkpt>
      <trkpt lat="49.97847" lon="5.26367">
        <ele>415</ele>
        <time>2015-04-26T08:52:20Z</time>
      </trkpt>
      <trkpt lat="49.97848" lon="5.26354">
        <ele>415</ele>
        <time>2015-04-26T08:52:26Z</time>
      </trkpt>
      <trkpt lat="49.97849" lon="5.26344">
        <ele>413</ele>
        <time>2015-04-26T08:52:31Z</time>
      </trkpt>
      <trkpt lat="49.97849" lon="5.26331">
        <ele>413</ele>
        <time>2015-04-26T08:52:37Z</time>
      </trkpt>
      <trkpt lat="49.97849" lon="5.26318">
        <ele>414</ele>
        <time>2015-04-26T08:52:43Z</time>
      </trkpt>
      <trkpt lat="49.97848" lon="5.26308">
        <ele>413</ele>
        <time>2015-04-26T08:52:48Z</time>
      </trkpt>
      <trkpt lat="49.97848" lon="5.26298">
        <ele>412</ele>
        <time>2015-04-26T08:52:53Z</time>
      </trkpt>
      <trkpt lat="49.97848" lon="5.26286">
        <ele>412</ele>
        <time>2015-04-26T08:52:59Z</time>
      </trkpt>
      <trkpt lat="49.97848" lon="5.26273">
        <ele>411</ele>
        <time>2015-04-26T08:53:05Z</time>
      </trkpt>
      <trkpt lat="49.97846" lon="5.26263">
        <ele>411</ele>
        <time>2015-04-26T08:53:10Z</time>
      </trkpt>
      <trkpt lat="49.97845" lon="5.26249">
        <ele>411</ele>
        <time>2015-04-26T08:53:16Z</time>
      </trkpt>
      <trkpt lat="49.97844" lon="5.26238">
        <ele>411</ele>
        <time>2015-04-26T08:53:21Z</time>
      </trkpt>
      <trkpt lat="49.97844" lon="5.26226">
        <ele>411</ele>
        <time>2015-04-26T08:53:27Z</time>
      </trkpt>
      <trkpt lat="49.97844" lon="5.26215">
        <ele>411</ele>
        <time>2015-04-26T08:53:33Z</time>
      </trkpt>
      <trkpt lat="49.97843" lon="5.26205">
        <ele>410</ele>
        <time>2015-04-26T08:53:38Z</time>
      </trkpt>
      <trkpt lat="49.97843" lon="5.26194">
        <ele>409</ele>
        <time>2015-04-26T08:53:44Z</time>
      </trkpt>
      <trkpt lat="49.97842" lon="5.26186">
        <ele>409</ele>
        <time>2015-04-26T08:53:49Z</time>
      </trkpt>
      <trkpt lat="49.97842" lon="5.26176">
        <ele>408</ele>
        <time>2015-04-26T08:53:54Z</time>
      </trkpt>
      <trkpt lat="49.97842" lon="5.26165">
        <ele>408</ele>
        <time>2015-04-26T08:54:00Z</time>
      </trkpt>
      <trkpt lat="49.97842" lon="5.26154">
        <ele>407</ele>
        <time>2015-04-26T08:54:06Z</time>
      </trkpt>
      <trkpt lat="49.97842" lon="5.26143">
        <ele>407</ele>
        <time>2015-04-26T08:54:11Z</time>
      </trkpt>
      <trkpt lat="49.97841" lon="5.26132">
        <ele>407</ele>
        <time>2015-04-26T08:54:16Z</time>
      </trkpt>
      <trkpt lat="49.97841" lon="5.26121">
        <ele>406</ele>
        <time>2015-04-26T08:54:21Z</time>
      </trkpt>
      <trkpt lat="49.97841" lon="5.26111">
        <ele>405</ele>
        <time>2015-04-26T08:54:26Z</time>
      </trkpt>
      <trkpt lat="49.97841" lon="5.26099">
        <ele>405</ele>
        <time>2015-04-26T08:54:31Z</time>
      </trkpt>
      <trkpt lat="49.97841" lon="5.26086">
        <ele>405</ele>
        <time>2015-04-26T08:54:37Z</time>
      </trkpt>
      <trkpt lat="49.97842" lon="5.26075">
        <ele>404</ele>
        <time>2015-04-26T08:54:42Z</time>
      </trkpt>
      <trkpt lat="49.97842" lon="5.26064">
        <ele>404</ele>
        <time>2015-04-26T08:54:47Z</time>
      </trkpt>
      <trkpt lat="49.97842" lon="5.26052">
        <ele>403</ele>
        <time>2015-04-26T08:54:53Z</time>
      </trkpt>
      <trkpt lat="49.97843" lon="5.26043">
        <ele>403</ele>
        <time>2015-04-26T08:54:58Z</time>
      </trkpt>
      <trkpt lat="49.97843" lon="5.26032">
        <ele>402</ele>
        <time>2015-04-26T08:55:03Z</time>
      </trkpt>
      <trkpt lat="49.97844" lon="5.26025">
        <ele>401</ele>
        <time>2015-04-26T08:55:08Z</time>
      </trkpt>
      <trkpt lat="49.97843" lon="5.26017">
        <ele>401</ele>
        <time>2015-04-26T08:55:14Z</time>
      </trkpt>
      <trkpt lat="49.97843" lon="5.26007">
        <ele>401</ele>
        <time>2015-04-26T08:55:20Z</time>
      </trkpt>
      <trkpt lat="49.97843" lon="5.25995">
        <ele>401</ele>
        <time>2015-04-26T08:55:26Z</time>
      </trkpt>
      <trkpt lat="49.97842" lon="5.25984">
        <ele>401</ele>
        <time>2015-04-26T08:55:31Z</time>
      </trkpt>
      <trkpt lat="49.97842" lon="5.25971">
        <ele>400</ele>
        <time>2015-04-26T08:55:37Z</time>
      </trkpt>
      <trkpt lat="49.97844" lon="5.2596">
        <ele>400</ele>
        <time>2015-04-26T08:55:42Z</time>
      </trkpt>
      <trkpt lat="49.97845" lon="5.25951">
        <ele>399</ele>
        <time>2015-04-26T08:55:47Z</time>
      </trkpt>
      <trkpt lat="49.97847" lon="5.25941">
        <ele>398</ele>
        <time>2015-04-26T08:55:53Z</time>
      </trkpt>
      <trkpt lat="49.97849" lon="5.25929">
        <ele>398</ele>
        <time>2015-04-26T08:55:59Z</time>
      </trkpt>
      <trkpt lat="49.9785" lon="5.25921">
        <ele>398</ele>
        <time>2015-04-26T08:56:04Z</time>
      </trkpt>
      <trkpt lat="49.97852" lon="5.25911">
        <ele>397</ele>
        <time>2015-04-26T08:56:10Z</time>
      </trkpt>
      <trkpt lat="49.97853" lon="5.259">
        <ele>396</ele>
        <time>2015-04-26T08:56:16Z</time>
      </trkpt>
      <trkpt lat="49.97855" lon="5.2589">
        <ele>396</ele>
        <time>2015-04-26T08:56:21Z</time>
      </trkpt>
      <trkpt lat="49.97855" lon="5.25877">
        <ele>397</ele>
        <time>2015-04-26T08:56:27Z</time>
      </trkpt>
      <trkpt lat="49.97856" lon="5.25867">
        <ele>396</ele>
        <time>2015-04-26T08:56:32Z</time>
      </trkpt>
      <trkpt lat="49.97858" lon="5.25855">
        <ele>395</ele>
        <time>2015-04-26T08:56:38Z</time>
      </trkpt>
      <trkpt lat="49.97858" lon="5.25848">
        <ele>395</ele>
        <time>2015-04-26T08:56:43Z</time>
      </trkpt>
      <trkpt lat="49.97859" lon="5.25838">
        <ele>395</ele>
        <time>2015-04-26T08:56:49Z</time>
      </trkpt>
      <trkpt lat="49.97861" lon="5.25829">
        <ele>394</ele>
        <time>2015-04-26T08:56:54Z</time>
      </trkpt>
      <trkpt lat="49.97863" lon="5.25819">
        <ele>394</ele>
        <time>2015-04-26T08:57:00Z</time>
      </trkpt>
      <trkpt lat="49.97863" lon="5.25812">
        <ele>394</ele>
        <time>2015-04-26T08:57:05Z</time>
      </trkpt>
      <trkpt lat="49.97863" lon="5.2581">
        <ele>394</ele>
        <time>2015-04-26T08:57:11Z</time>
      </trkpt>
      <trkpt lat="49.97865" lon="5.2581">
        <ele>394</ele>
        <time>2015-04-26T08:57:16Z</time>
      </trkpt>
      <trkpt lat="49.97867" lon="5.25812">
        <ele>395</ele>
        <time>2015-04-26T08:57:22Z</time>
      </trkpt>
      <trkpt lat="49.97868" lon="5.25812">
        <ele>395</ele>
        <time>2015-04-26T08:57:27Z</time>
      </trkpt>
      <trkpt lat="49.97868" lon="5.25811">
        <ele>394</ele>
        <time>2015-04-26T08:57:33Z</time>
      </trkpt>
      <trkpt lat="49.97869" lon="5.25812">
        <ele>394</ele>
        <time>2015-04-26T08:57:39Z</time>
      </trkpt>
      <trkpt lat="49.97869" lon="5.25812">
        <ele>394</ele>
        <time>2015-04-26T08:57:45Z</time>
      </trkpt>
      <trkpt lat="49.9787" lon="5.25811">
        <ele>395</ele>
        <time>2015-04-26T08:57:51Z</time>
      </trkpt>
      <trkpt lat="49.97869" lon="5.2581">
        <ele>395</ele>
        <time>2015-04-26T08:57:57Z</time>
      </trkpt>
      <trkpt lat="49.97866" lon="5.25803">
        <ele>395</ele>
        <time>2015-04-26T08:58:02Z</time>
      </trkpt>
      <trkpt lat="49.97866" lon="5.25793">
        <ele>394</ele>
        <time>2015-04-26T08:58:08Z</time>
      </trkpt>
      <trkpt lat="49.97867" lon="5.25785">
        <ele>394</ele>
        <time>2015-04-26T08:58:13Z</time>
      </trkpt>
      <trkpt lat="49.97869" lon="5.25776">
        <ele>395</ele>
        <time>2015-04-26T08:58:19Z</time>
      </trkpt>
      <trkpt lat="49.97869" lon="5.25768">
        <ele>394</ele>
        <time>2015-04-26T08:58:24Z</time>
      </trkpt>
      <trkpt lat="49.9787" lon="5.25758">
        <ele>394</ele>
        <time>2015-04-26T08:58:30Z</time>
      </trkpt>
      <trkpt lat="49.97871" lon="5.25747">
        <ele>394</ele>
        <time>2015-04-26T08:58:36Z</time>
      </trkpt>
      <trkpt lat="49.9787" lon="5.25742">
        <ele>394</ele>
        <time>2015-04-26T08:58:41Z</time>
      </trkpt>
      <trkpt lat="49.97869" lon="5.25731">
        <ele>394</ele>
        <time>2015-04-26T08:58:46Z</time>
      </trkpt>
      <trkpt lat="49.97873" lon="5.25722">
        <ele>394</ele>
        <time>2015-04-26T08:58:52Z</time>
      </trkpt>
      <trkpt lat="49.97876" lon="5.25714">
        <ele>394</ele>
        <time>2015-04-26T08:58:57Z</time>
      </trkpt>
      <trkpt lat="49.9788" lon="5.25705">
        <ele>394</ele>
        <time>2015-04-26T08:59:03Z</time>
      </trkpt>
      <trkpt lat="49.97884" lon="5.25697">
        <ele>394</ele>
        <time>2015-04-26T08:59:09Z</time>
      </trkpt>
      <trkpt lat="49.97888" lon="5.25692">
        <ele>394</ele>
        <time>2015-04-26T08:59:14Z</time>
      </trkpt>
      <trkpt lat="49.97894" lon="5.25686">
        <ele>394</ele>
        <time>2015-04-26T08:59:20Z</time>
      </trkpt>
      <trkpt lat="49.97899" lon="5.2568">
        <ele>394</ele>
        <time>2015-04-26T08:59:25Z</time>
      </trkpt>
      <trkpt lat="49.97904" lon="5.25672">
        <ele>394</ele>
        <time>2015-04-26T08:59:31Z</time>
      </trkpt>
      <trkpt lat="49.9791" lon="5.25665">
        <ele>395</ele>
        <time>2015-04-26T08:59:37Z</time>
      </trkpt>
      <trkpt lat="49.97914" lon="5.25662">
        <ele>395</ele>
        <time>2015-04-26T08:59:42Z</time>
      </trkpt>
      <trkpt lat="49.97919" lon="5.2566">
        <ele>395</ele>
        <time>2015-04-26T08:59:47Z</time>
      </trkpt>
      <trkpt lat="49.97924" lon="5.25656">
        <ele>395</ele>
        <time>2015-04-26T08:59:53Z</time>
      </trkpt>
      <trkpt lat="49.97929" lon="5.25653">
        <ele>396</ele>
        <time>2015-04-26T08:59:58Z</time>
      </trkpt>
      <trkpt lat="49.97934" lon="5.25651">
        <ele>396</ele>
        <time>2015-04-26T09:00:03Z</time>
      </trkpt>
      <trkpt lat="49.97942" lon="5.25647">
        <ele>396</ele>
        <time>2015-04-26T09:00:09Z</time>
      </trkpt>
      <trkpt lat="49.97948" lon="5.25644">
        <ele>396</ele>
        <time>2015-04-26T09:00:14Z</time>
      </trkpt>
      <trkpt lat="49.97955" lon="5.25639">
        <ele>396</ele>
        <time>2015-04-26T09:00:20Z</time>
      </trkpt>
      <trkpt lat="49.97961" lon="5.25634">
        <ele>397</ele>
        <time>2015-04-26T09:00:26Z</time>
      </trkpt>
      <trkpt lat="49.97967" lon="5.2563">
        <ele>398</ele>
        <time>2015-04-26T09:00:31Z</time>
      </trkpt>
      <trkpt lat="49.97973" lon="5.25627">
        <ele>398</ele>
        <time>2015-04-26T09:00:37Z</time>
      </trkpt>
      <trkpt lat="49.97979" lon="5.25624">
        <ele>398</ele>
        <time>2015-04-26T09:00:43Z</time>
      </trkpt>
      <trkpt lat="49.97987" lon="5.2562">
        <ele>399</ele>
        <time>2015-04-26T09:00:49Z</time>
      </trkpt>
      <trkpt lat="49.97991" lon="5.25616">
        <ele>399</ele>
        <time>2015-04-26T09:00:54Z</time>
      </trkpt>
      <trkpt lat="49.97995" lon="5.25613">
        <ele>399</ele>
        <time>2015-04-26T09:00:59Z</time>
      </trkpt>
      <trkpt lat="49.97999" lon="5.25611">
        <ele>400</ele>
        <time>2015-04-26T09:01:05Z</time>
      </trkpt>
      <trkpt lat="49.98001" lon="5.25611">
        <ele>399</ele>
        <time>2015-04-26T09:01:10Z</time>
      </trkpt>
      <trkpt lat="49.98006" lon="5.25609">
        <ele>399</ele>
        <time>2015-04-26T09:01:16Z</time>
      </trkpt>
      <trkpt lat="49.98007" lon="5.25609">
        <ele>399</ele>
        <time>2015-04-26T09:01:21Z</time>
      </trkpt>
      <trkpt lat="49.9801" lon="5.25609">
        <ele>399</ele>
        <time>2015-04-26T09:01:27Z</time>
      </trkpt>
      <trkpt lat="49.98014" lon="5.25609">
        <ele>400</ele>
        <time>2015-04-26T09:01:33Z</time>
      </trkpt>
      <trkpt lat="49.98018" lon="5.25608">
        <ele>400</ele>
        <time>2015-04-26T09:01:39Z</time>
      </trkpt>
      <trkpt lat="49.98016" lon="5.25607">
        <ele>400</ele>
        <time>2015-04-26T09:01:45Z</time>
      </trkpt>
      <trkpt lat="49.98013" lon="5.25606">
        <ele>400</ele>
        <time>2015-04-26T09:01:51Z</time>
      </trkpt>
      <trkpt lat="49.98012" lon="5.25605">
        <ele>400</ele>
        <time>2015-04-26T09:01:56Z</time>
      </trkpt>
      <trkpt lat="49.9801" lon="5.25604">
        <ele>400</ele>
        <time>2015-04-26T09:02:02Z</time>
      </trkpt>
      <trkpt lat="49.98008" lon="5.25602">
        <ele>400</ele>
        <time>2015-04-26T09:02:07Z</time>
      </trkpt>
      <trkpt lat="49.98006" lon="5.25603">
        <ele>401</ele>
        <time>2015-04-26T09:02:13Z</time>
      </trkpt>
      <trkpt lat="49.98004" lon="5.25606">
        <ele>400</ele>
        <time>2015-04-26T09:02:19Z</time>
      </trkpt>
      <trkpt lat="49.98003" lon="5.25607">
        <ele>400</ele>
        <time>2015-04-26T09:02:24Z</time>
      </trkpt>
      <trkpt lat="49.98003" lon="5.25612">
        <ele>400</ele>
        <time>2015-04-26T09:02:30Z</time>
      </trkpt>
      <trkpt lat="49.98003" lon="5.25614">
        <ele>400</ele>
        <time>2015-04-26T09:02:36Z</time>
      </trkpt>
      <trkpt lat="49.98003" lon="5.25617">
        <ele>400</ele>
        <time>2015-04-26T09:02:42Z</time>
      </trkpt>
      <trkpt lat="49.98004" lon="5.25613">
        <ele>400</ele>
        <time>2015-04-26T09:02:47Z</time>
      </trkpt>
      <trkpt lat="49.98003" lon="5.25614">
        <ele>400</ele>
        <time>2015-04-26T09:02:52Z</time>
      </trkpt>
      <trkpt lat="49.98003" lon="5.25617">
        <ele>400</ele>
        <time>2015-04-26T09:02:58Z</time>
      </trkpt>
      <trkpt lat="49.98018" lon="5.2562">
        <ele>400</ele>
        <time>2015-04-26T09:03:04Z</time>
      </trkpt>
      <trkpt lat="49.98044" lon="5.25616">
        <ele>401</ele>
        <time>2015-04-26T09:03:09Z</time>
      </trkpt>
      <trkpt lat="49.98074" lon="5.25617">
        <ele>402</ele>
        <time>2015-04-26T09:03:14Z</time>
      </trkpt>
      <trkpt lat="49.98112" lon="5.25621">
        <ele>404</ele>
        <time>2015-04-26T09:03:20Z</time>
      </trkpt>
      <trkpt lat="49.98145" lon="5.25627">
        <ele>404</ele>
        <time>2015-04-26T09:03:26Z</time>
      </trkpt>
      <trkpt lat="49.98157" lon="5.25666">
        <ele>404</ele>
        <time>2015-04-26T09:03:31Z</time>
      </trkpt>
      <trkpt lat="49.98172" lon="5.25732">
        <ele>402</ele>
        <time>2015-04-26T09:03:36Z</time>
      </trkpt>
      <trkpt lat="49.98198" lon="5.25832">
        <ele>401</ele>
        <time>2015-04-26T09:03:42Z</time>
      </trkpt>
      <trkpt lat="49.98223" lon="5.25937">
        <ele>402</ele>
        <time>2015-04-26T09:03:48Z</time>
      </trkpt>
      <trkpt lat="49.98244" lon="5.26029">
        <ele>404</ele>
        <time>2015-04-26T09:03:54Z</time>
      </trkpt>
      <trkpt lat="49.98256" lon="5.26096">
        <ele>407</ele>
        <time>2015-04-26T09:04:00Z</time>
      </trkpt>
      <trkpt lat="49.98271" lon="5.26177">
        <ele>409</ele>
        <time>2015-04-26T09:04:06Z</time>
      </trkpt>
      <trkpt lat="49.98292" lon="5.26253">
        <ele>412</ele>
        <time>2015-04-26T09:04:11Z</time>
      </trkpt>
      <trkpt lat="49.98314" lon="5.26324">
        <ele>414</ele>
        <time>2015-04-26T09:04:16Z</time>
      </trkpt>
      <trkpt lat="49.98337" lon="5.26382">
        <ele>416</ele>
        <time>2015-04-26T09:04:21Z</time>
      </trkpt>
      <trkpt lat="49.98349" lon="5.2645">
        <ele>418</ele>
        <time>2015-04-26T09:04:27Z</time>
      </trkpt>
      <trkpt lat="49.98358" lon="5.26531">
        <ele>420</ele>
        <time>2015-04-26T09:04:33Z</time>
      </trkpt>
      <trkpt lat="49.98367" lon="5.26602">
        <ele>421</ele>
        <time>2015-04-26T09:04:38Z</time>
      </trkpt>
      <trkpt lat="49.98375" lon="5.26671">
        <ele>422</ele>
        <time>2015-04-26T09:04:44Z</time>
      </trkpt>
      <trkpt lat="49.98368" lon="5.26708">
        <ele>423</ele>
        <time>2015-04-26T09:04:50Z</time>
      </trkpt>
      <trkpt lat="49.98326" lon="5.26719">
        <ele>423</ele>
        <time>2015-04-26T09:04:55Z</time>
      </trkpt>
      <trkpt lat="49.98262" lon="5.26734">
        <ele>420</ele>
        <time>2015-04-26T09:05:01Z</time>
      </trkpt>
      <trkpt lat="49.9821" lon="5.26765">
        <ele>415</ele>
        <time>2015-04-26T09:05:07Z</time>
      </trkpt>
      <trkpt lat="49.98169" lon="5.26759">
        <ele>411</ele>
        <time>2015-04-26T09:05:13Z</time>
      </trkpt>
      <trkpt lat="49.98153" lon="5.26784">
        <ele>409</ele>
        <time>2015-04-26T09:05:19Z</time>
      </trkpt>
      <trkpt lat="49.98145" lon="5.26845">
        <ele>409</ele>
        <time>2015-04-26T09:05:25Z</time>
      </trkpt>
      <trkpt lat="49.98138" lon="5.26858">
        <ele>411</ele>
        <time>2015-04-26T09:05:31Z</time>
      </trkpt>
      <trkpt lat="49.98136" lon="5.26857">
        <ele>411</ele>
        <time>2015-04-26T09:05:37Z</time>
      </trkpt>
      <trkpt lat="49.98136" lon="5.26857">
        <ele>411</ele>
        <time>2015-04-26T09:05:42Z</time>
      </trkpt>
      <trkpt lat="49.98136" lon="5.26855">
        <ele>411</ele>
        <time>2015-04-26T09:05:47Z</time>
      </trkpt>
      <trkpt lat="49.98136" lon="5.26854">
        <ele>412</ele>
        <time>2015-04-26T09:05:53Z</time>
      </trkpt>
      <trkpt lat="49.98137" lon="5.26853">
        <ele>412</ele>
        <time>2015-04-26T09:05:59Z</time>
      </trkpt>
      <trkpt lat="49.98139" lon="5.26852">
        <ele>411</ele>
        <time>2015-04-26T09:06:00Z</time>
      </trkpt>
    </trkseg>
  </trk>
</gpx>